PORTS® Data Listing: 8720219 Dames Point, FL

CO-OPS RAW PORTS DATA

************************      PRELIMINARY DATA      ************************** 

     THIS RAW DATA HAS NOT BEEN SUBJECT TO THE NATIONAL OCEAN SERVICE'S        
     QUALITY CONTROL OR QUALITY ASSURANCE PROCEDURES AND DOES NOT MEET         
     THE CRITERIA AND STANDARDS OF OFFICIAL NATIONAL OCEAN SERVICE             
     DATA.  IT IS RELEASED FOR LIMITED PUBLIC USE AS PRELIMINARY DATA TO       
     BE USED ONLY WITH APPROPRIATE CAUTION.                                    

************************      PRELIMINARY DATA      ************************** 


       CD   -   Calendar date
       T    -   Time
       TZ   -   Timezone
       PW   -   Predicted water level (feet above MLLW)
       OW   -   Observed water level (feet above MLLW)
       WS   -   Wind speed (knots)
       WD   -   Wind direction (degrees true)
       WG   -   Wind gust (knots)
       AT   -   Air temperature (degrees farenheit)
       WT   -   Water temperature (degrees farenheit)
       AP   -   Air pressure (millibars)
       SA   -   Salinty (PSU - Practical Salinity Units)
       SG   -   Specific gravity
       RH   -   Relative humidity
       AG   -   Air gap (feet)
       VI   -   Visibility (nautical miles)

       ** NOTE **
       A variable that has its data fields filled with "9"s, indicates that
       data was not collected for that sample period.
       **********


STATION NAME: Dames Point (8720219)
****************************************************************************************************
    CD       T    TZ    PW     OW    WS   WD   WG    AT    WT    AP    SA    SG     RH    AG   VI
****************************************************************************************************
2019/09/15 08:18 EDT    2.88   3.85 -999 -999 -999 -99.9  83.7 -999.9 12.0  1.006 -99.9 -99.99 -9.99
2019/09/15 08:24 EDT    2.96   3.91 -999 -999 -999 -99.9  83.7 -999.9 12.3  1.006 -99.9 -99.99 -9.99
2019/09/15 08:30 EDT    3.04   3.94 -999 -999 -999 -99.9  83.7 -999.9 12.1  1.006 -99.9 -99.99 -9.99
2019/09/15 08:36 EDT    3.12   3.88 -999 -999 -999 -99.9  83.5 -999.9 12.2  1.006 -99.9 -99.99 -9.99
2019/09/15 08:42 EDT    3.19   4.03 -999 -999 -999 -99.9  83.7 -999.9 12.4  1.006 -99.9 -99.99 -9.99
2019/09/15 08:48 EDT    3.26   4.12 -999 -999 -999 -99.9  83.5 -999.9 12.9  1.007 -99.9 -99.99 -9.99
2019/09/15 08:54 EDT    3.32   4.15 -999 -999 -999 -99.9  83.5 -999.9 12.7  1.006 -99.9 -99.99 -9.99
2019/09/15 09:00 EDT    3.38   4.18 -999 -999 -999 -99.9  83.7 -999.9 12.7  1.006 -99.9 -99.99 -9.99
2019/09/15 09:06 EDT    3.44   4.23 -999 -999 -999 -99.9  83.7 -999.9 12.5  1.006 -99.9 -99.99 -9.99
2019/09/15 09:12 EDT    3.49   4.30 -999 -999 -999 -99.9  83.7 -999.9 12.4  1.006 -99.9 -99.99 -9.99
2019/09/15 09:18 EDT    3.53   4.30 -999 -999 -999 -99.9  83.5 -999.9 12.2  1.006 -99.9 -99.99 -9.99
2019/09/15 09:24 EDT    3.57   4.33 -999 -999 -999 -99.9  83.7 -999.9 12.5  1.006 -99.9 -99.99 -9.99
2019/09/15 09:30 EDT    3.61   4.34 -999 -999 -999 -99.9  83.7 -999.9 12.5  1.006 -99.9 -99.99 -9.99
2019/09/15 09:36 EDT    3.65   4.38 -999 -999 -999 -99.9  83.7 -999.9 12.5  1.006 -99.9 -99.99 -9.99
2019/09/15 09:42 EDT    3.68   4.41 -999 -999 -999 -99.9  83.7 -999.9 12.7  1.006 -99.9 -99.99 -9.99
2019/09/15 09:48 EDT    3.70   4.44 -999 -999 -999 -99.9  83.7 -999.9 13.1  1.007 -99.9 -99.99 -9.99
2019/09/15 09:54 EDT    3.73   4.45 -999 -999 -999 -99.9  83.8 -999.9 13.3  1.007 -99.9 -99.99 -9.99
2019/09/15 10:00 EDT    3.75   4.46 -999 -999 -999 -99.9  83.8 -999.9 13.4  1.007 -99.9 -99.99 -9.99
2019/09/15 10:06 EDT    3.76   4.48 -999 -999 -999 -99.9  83.8 -999.9 13.5  1.007 -99.9 -99.99 -9.99
2019/09/15 10:12 EDT    3.78   4.48 -999 -999 -999 -99.9  83.8 -999.9 13.5  1.007 -99.9 -99.99 -9.99
2019/09/15 10:18 EDT    3.79   4.50 -999 -999 -999 -99.9  83.8 -999.9 13.7  1.007 -99.9 -99.99 -9.99
2019/09/15 10:24 EDT    3.80   4.51 -999 -999 -999 -99.9  83.8 -999.9 13.8  1.007 -99.9 -99.99 -9.99
2019/09/15 10:30 EDT    3.81   4.53 -999 -999 -999 -99.9  83.8 -999.9 13.7  1.007 -99.9 -99.99 -9.99
2019/09/15 10:36 EDT    3.82   4.55 -999 -999 -999 -99.9  83.8 -999.9 13.7  1.007 -99.9 -99.99 -9.99
2019/09/15 10:42 EDT    3.82   4.54 -999 -999 -999 -99.9  83.8 -999.9 13.9  1.007 -99.9 -99.99 -9.99
2019/09/15 10:48 EDT    3.82   4.56 -999 -999 -999 -99.9  83.8 -999.9 13.9  1.007 -99.9 -99.99 -9.99
2019/09/15 10:54 EDT    3.82   4.55 -999 -999 -999 -99.9  83.8 -999.9 13.9  1.007 -99.9 -99.99 -9.99
2019/09/15 11:00 EDT    3.81   4.54 -999 -999 -999 -99.9  83.8 -999.9 14.0  1.007 -99.9 -99.99 -9.99
2019/09/15 11:06 EDT    3.81   4.56 -999 -999 -999 -99.9  83.8 -999.9 14.1  1.007 -99.9 -99.99 -9.99
2019/09/15 11:12 EDT    3.80   4.55 -999 -999 -999 -99.9  84.0 -999.9 15.0  1.008 -99.9 -99.99 -9.99
2019/09/15 11:18 EDT    3.79   4.55 -999 -999 -999 -99.9  84.0 -999.9 15.6  1.008 -99.9 -99.99 -9.99
2019/09/15 11:24 EDT    3.77   4.54 -999 -999 -999 -99.9  84.0 -999.9 15.8  1.009 -99.9 -99.99 -9.99
2019/09/15 11:30 EDT    3.75   4.53 -999 -999 -999 -99.9  84.0 -999.9 16.0  1.009 -99.9 -99.99 -9.99
2019/09/15 11:36 EDT    3.73   4.54 -999 -999 -999 -99.9  84.0 -999.9 16.1  1.009 -99.9 -99.99 -9.99
2019/09/15 11:42 EDT    3.71   4.52 -999 -999 -999 -99.9  84.0 -999.9 16.2  1.009 -99.9 -99.99 -9.99
2019/09/15 11:48 EDT    3.68   4.49 -999 -999 -999 -99.9  84.0 -999.9 16.6  1.009 -99.9 -99.99 -9.99
2019/09/15 11:54 EDT    3.65   4.46 -999 -999 -999 -99.9  84.0 -999.9 16.8  1.009 -99.9 -99.99 -9.99
2019/09/15 12:00 EDT    3.61   4.43 -999 -999 -999 -99.9  84.0 -999.9 17.0  1.010 -99.9 -99.99 -9.99
2019/09/15 12:06 EDT    3.57   4.42 -999 -999 -999 -99.9  84.0 -999.9 17.3  1.010 -99.9 -99.99 -9.99
2019/09/15 12:12 EDT    3.52   4.38 -999 -999 -999 -99.9  83.8 -999.9 17.4  1.010 -99.9 -99.99 -9.99
2019/09/15 12:18 EDT    3.47   4.33 -999 -999 -999 -99.9  83.8 -999.9 17.6  1.010 -99.9 -99.99 -9.99
2019/09/15 12:24 EDT    3.41   4.28 -999 -999 -999 -99.9  83.8 -999.9 17.7  1.010 -99.9 -99.99 -9.99
2019/09/15 12:30 EDT    3.35   4.23 -999 -999 -999 -99.9  83.8 -999.9 17.7  1.010 -99.9 -99.99 -9.99
2019/09/15 12:36 EDT    3.29   4.18 -999 -999 -999 -99.9  83.8 -999.9 17.7  1.010 -99.9 -99.99 -9.99
2019/09/15 12:42 EDT    3.22   4.13 -999 -999 -999 -99.9  83.8 -999.9 17.8  1.010 -99.9 -99.99 -9.99
2019/09/15 12:48 EDT    3.14   4.07 -999 -999 -999 -99.9  83.8 -999.9 17.8  1.010 -99.9 -99.99 -9.99
2019/09/15 12:54 EDT    3.06   4.00 -999 -999 -999 -99.9  83.8 -999.9 17.8  1.010 -99.9 -99.99 -9.99
2019/09/15 13:00 EDT    2.98   3.94 -999 -999 -999 -99.9  83.8 -999.9 18.0  1.010 -99.9 -99.99 -9.99
2019/09/15 13:06 EDT    2.90   3.88 -999 -999 -999 -99.9  83.8 -999.9 18.0  1.010 -99.9 -99.99 -9.99
2019/09/15 13:12 EDT    2.81   3.79 -999 -999 -999 -99.9  83.8 -999.9 18.0  1.010 -99.9 -99.99 -9.99
2019/09/15 13:18 EDT    2.72   3.71 -999 -999 -999 -99.9  83.8 -999.9 18.0  1.010 -99.9 -99.99 -9.99
2019/09/15 13:24 EDT    2.63   3.61 -999 -999 -999 -99.9  84.0 -999.9 17.7  1.010 -99.9 -99.99 -9.99
2019/09/15 13:30 EDT    2.54   3.52 -999 -999 -999 -99.9  84.0 -999.9 17.7  1.010 -99.9 -99.99 -9.99
2019/09/15 13:36 EDT    2.44   3.47 -999 -999 -999 -99.9  83.8 -999.9 17.8  1.010 -99.9 -99.99 -9.99
2019/09/15 13:42 EDT    2.35   3.38 -999 -999 -999 -99.9  83.8 -999.9 17.7  1.010 -99.9 -99.99 -9.99
2019/09/15 13:48 EDT    2.25   3.30 -999 -999 -999 -99.9  83.8 -999.9 17.7  1.010 -99.9 -99.99 -9.99
2019/09/15 13:54 EDT    2.16   3.20 -999 -999 -999 -99.9  84.0 -999.9 17.4  1.010 -99.9 -99.99 -9.99
2019/09/15 14:00 EDT    2.06   3.10 -999 -999 -999 -99.9  84.2 -999.9 17.0  1.010 -99.9 -99.99 -9.99
2019/09/15 14:06 EDT    1.97   3.02 -999 -999 -999 -99.9  84.2 -999.9 17.0  1.010 -99.9 -99.99 -9.99
2019/09/15 14:12 EDT    1.88   2.95 -999 -999 -999 -99.9  84.2 -999.9 16.9  1.009 -99.9 -99.99 -9.99
2019/09/15 14:18 EDT    1.79   2.85 -999 -999 -999 -99.9  84.2 -999.9 16.9  1.009 -99.9 -99.99 -9.99
2019/09/15 14:24 EDT    1.70   2.73 -999 -999 -999 -99.9  84.2 -999.9 16.8  1.009 -99.9 -99.99 -9.99
2019/09/15 14:30 EDT    1.62   2.64 -999 -999 -999 -99.9  84.2 -999.9 16.7  1.009 -99.9 -99.99 -9.99
2019/09/15 14:36 EDT    1.54   2.55 -999 -999 -999 -99.9  84.2 -999.9 16.8  1.009 -99.9 -99.99 -9.99
2019/09/15 14:42 EDT    1.46   2.49 -999 -999 -999 -99.9  84.2 -999.9 16.8  1.009 -99.9 -99.99 -9.99
2019/09/15 14:48 EDT    1.39   2.42 -999 -999 -999 -99.9  84.2 -999.9 16.7  1.009 -99.9 -99.99 -9.99
2019/09/15 14:54 EDT    1.32   2.31 -999 -999 -999 -99.9  84.0 -999.9 17.0  1.010 -99.9 -99.99 -9.99
2019/09/15 15:00 EDT    1.25   2.23 -999 -999 -999 -99.9  84.2 -999.9 17.0  1.010 -99.9 -99.99 -9.99
2019/09/15 15:06 EDT    1.19   2.16 -999 -999 -999 -99.9  84.2 -999.9 17.1  1.010 -99.9 -99.99 -9.99
2019/09/15 15:12 EDT    1.13   2.09 -999 -999 -999 -99.9  84.4 -999.9 16.8  1.009 -99.9 -99.99 -9.99
2019/09/15 15:18 EDT    1.07   2.01 -999 -999 -999 -99.9  84.2 -999.9 17.0  1.010 -99.9 -99.99 -9.99
2019/09/15 15:24 EDT    1.02   1.92 -999 -999 -999 -99.9  84.2 -999.9 16.9  1.009 -99.9 -99.99 -9.99
2019/09/15 15:30 EDT    0.97   1.86 -999 -999 -999 -99.9  84.4 -999.9 16.8  1.009 -99.9 -99.99 -9.99
2019/09/15 15:36 EDT    0.93   1.82 -999 -999 -999 -99.9  84.2 -999.9 16.8  1.009 -99.9 -99.99 -9.99
2019/09/15 15:42 EDT    0.89   1.79 -999 -999 -999 -99.9  84.2 -999.9 16.8  1.009 -99.9 -99.99 -9.99
2019/09/15 15:48 EDT    0.85   1.75 -999 -999 -999 -99.9  84.2 -999.9 16.8  1.009 -99.9 -99.99 -9.99
2019/09/15 15:54 EDT    0.81   1.71 -999 -999 -999 -99.9  84.0 -999.9 16.7  1.009 -99.9 -99.99 -9.99
2019/09/15 16:00 EDT    0.78   1.66 -999 -999 -999 -99.9  84.0 -999.9 16.8  1.009 -99.9 -99.99 -9.99
2019/09/15 16:06 EDT    0.75   1.64 -999 -999 -999 -99.9  84.2 -999.9 16.2  1.009 -99.9 -99.99 -9.99
2019/09/15 16:12 EDT    0.73   1.62 -999 -999 -999 -99.9  84.2 -999.9 16.3  1.009 -99.9 -99.99 -9.99
2019/09/15 16:18 EDT    0.70   1.59 -999 -999 -999 -99.9  84.2 -999.9 16.1  1.009 -99.9 -99.99 -9.99
2019/09/15 16:24 EDT    0.68   1.53 -999 -999 -999 -99.9  84.2 -999.9 16.0  1.009 -99.9 -99.99 -9.99
2019/09/15 16:30 EDT    0.67   1.50 -999 -999 -999 -99.9  84.0 -999.9 16.1  1.009 -99.9 -99.99 -9.99
2019/09/15 16:36 EDT    0.65   1.49 -999 -999 -999 -99.9  84.2 -999.9 15.6  1.009 -99.9 -99.99 -9.99
2019/09/15 16:42 EDT    0.64   1.45 -999 -999 -999 -99.9  84.2 -999.9 15.2  1.008 -99.9 -99.99 -9.99
2019/09/15 16:48 EDT    0.64   1.48 -999 -999 -999 -99.9  84.0 -999.9 15.7  1.009 -99.9 -99.99 -9.99
2019/09/15 16:54 EDT    0.63   1.49 -999 -999 -999 -99.9  84.2 -999.9 15.2  1.008 -99.9 -99.99 -9.99
2019/09/15 17:00 EDT    0.63   1.46 -999 -999 -999 -99.9  84.2 -999.9 14.4  1.008 -99.9 -99.99 -9.99
2019/09/15 17:06 EDT    0.63   1.42 -999 -999 -999 -99.9  84.2 -999.9 14.5  1.008 -99.9 -99.99 -9.99
2019/09/15 17:12 EDT    0.64   1.44 -999 -999 -999 -99.9  84.0 -999.9 15.2  1.008 -99.9 -99.99 -9.99
2019/09/15 17:18 EDT    0.65   1.47 -999 -999 -999 -99.9  84.0 -999.9 15.4  1.008 -99.9 -99.99 -9.99
2019/09/15 17:24 EDT    0.67   1.44 -999 -999 -999 -99.9  83.8 -999.9 15.9  1.009 -99.9 -99.99 -9.99
2019/09/15 17:30 EDT    0.68   1.47 -999 -999 -999 -99.9  84.0 -999.9 14.9  1.008 -99.9 -99.99 -9.99
2019/09/15 17:36 EDT    0.71   1.46 -999 -999 -999 -99.9  83.8 -999.9 15.9  1.009 -99.9 -99.99 -9.99
2019/09/15 17:42 EDT    0.73   1.44 -999 -999 -999 -99.9  84.0 -999.9 14.5  1.008 -99.9 -99.99 -9.99
2019/09/15 17:48 EDT    0.76   1.52 -999 -999 -999 -99.9  84.0 -999.9 14.7  1.008 -99.9 -99.99 -9.99
2019/09/15 17:54 EDT    0.80   1.55 -999 -999 -999 -99.9  84.2 -999.9 13.6  1.007 -99.9 -99.99 -9.99
2019/09/15 18:00 EDT    0.84   1.59 -999 -999 -999 -99.9  84.2 -999.9 13.4  1.007 -99.9 -99.99 -9.99
2019/09/15 18:06 EDT    0.88   1.63 -999 -999 -999 -99.9  84.2 -999.9 13.2  1.007 -99.9 -99.99 -9.99
2019/09/15 18:12 EDT    0.93   1.68 -999 -999 -999 -99.9  84.4 -999.9 12.6  1.006 -99.9 -99.99 -9.99
2019/09/15 18:18 EDT    0.98   1.73 -999 -999 -999 -99.9  84.4 -999.9 12.2  1.006 -99.9 -99.99 -9.99
2019/09/15 18:24 EDT    1.04   1.81 -999 -999 -999 -99.9  84.4 -999.9 12.5  1.006 -99.9 -99.99 -9.99
2019/09/15 18:30 EDT    1.10   1.90 -999 -999 -999 -99.9  84.4 -999.9 12.3  1.006 -99.9 -99.99 -9.99
2019/09/15 18:36 EDT    1.17   1.97 -999 -999 -999 -99.9  84.4 -999.9 12.3  1.006 -99.9 -99.99 -9.99
2019/09/15 18:42 EDT    1.24   2.05 -999 -999 -999 -99.9  84.4 -999.9 12.2  1.006 -99.9 -99.99 -9.99
2019/09/15 18:48 EDT    1.31   2.13 -999 -999 -999 -99.9  84.4 -999.9 12.3  1.006 -99.9 -99.99 -9.99
2019/09/15 18:54 EDT    1.39   2.23 -999 -999 -999 -99.9  84.4 -999.9 12.1  1.006 -99.9 -99.99 -9.99
2019/09/15 19:00 EDT    1.47   2.36 -999 -999 -999 -99.9  84.4 -999.9 11.9  1.006 -99.9 -99.99 -9.99
2019/09/15 19:06 EDT    1.55   2.43 -999 -999 -999 -99.9  84.4 -999.9 12.2  1.006 -99.9 -99.99 -9.99
2019/09/15 19:12 EDT    1.64   2.53 -999 -999 -999 -99.9  84.4 -999.9 12.0  1.006 -99.9 -99.99 -9.99
2019/09/15 19:18 EDT    1.73   2.63 -999 -999 -999 -99.9  84.4 -999.9 11.8  1.006 -99.9 -99.99 -9.99
2019/09/15 19:24 EDT    1.82   2.72 -999 -999 -999 -99.9  84.4 -999.9 12.0  1.006 -99.9 -99.99 -9.99
2019/09/15 19:30 EDT    1.92   2.82 -999 -999 -999 -99.9  84.4 -999.9 11.8  1.006 -99.9 -99.99 -9.99
2019/09/15 19:36 EDT    2.01   2.94 -999 -999 -999 -99.9  84.4 -999.9 12.1  1.006 -99.9 -99.99 -9.99
2019/09/15 19:42 EDT    2.11   3.03 -999 -999 -999 -99.9  84.4 -999.9 11.8  1.006 -99.9 -99.99 -9.99
2019/09/15 19:48 EDT    2.20   3.13 -999 -999 -999 -99.9  84.4 -999.9 11.7  1.006 -99.9 -99.99 -9.99
2019/09/15 19:54 EDT    2.30   3.23 -999 -999 -999 -99.9  84.2 -999.9 12.1  1.006 -99.9 -99.99 -9.99
2019/09/15 20:00 EDT    2.40   3.32 -999 -999 -999 -99.9  84.4 -999.9 12.0  1.006 -99.9 -99.99 -9.99
2019/09/15 20:06 EDT    2.49   3.42 -999 -999 -999 -99.9  84.2 -999.9 11.5  1.005 -99.9 -99.99 -9.99
2019/09/15 20:12 EDT    2.59   3.52 -999 -999 -999 -99.9  84.2 -999.9 12.5  1.006 -99.9 -99.99 -9.99
2019/09/15 20:18 EDT    2.68   3.59 -999 -999 -999 -99.9  84.2 -999.9 12.6  1.006 -99.9 -99.99 -9.99
2019/09/15 20:24 EDT    2.77   3.70 -999 -999 -999 -99.9  84.4 -999.9 12.4  1.006 -99.9 -99.99 -9.99
2019/09/15 20:30 EDT    2.86   3.68 -999 -999 -999 -99.9  84.4 -999.9 12.3  1.006 -99.9 -99.99 -9.99
2019/09/15 20:36 EDT    2.95   3.84 -999 -999 -999 -99.9  84.4 -999.9 12.3  1.006 -99.9 -99.99 -9.99
2019/09/15 20:42 EDT    3.03   3.91 -999 -999 -999 -99.9  84.2 -999.9 12.3  1.006 -99.9 -99.99 -9.99
2019/09/15 20:48 EDT    3.11   3.96 -999 -999 -999 -99.9  84.2 -999.9 12.6  1.006 -99.9 -99.99 -9.99
2019/09/15 20:54 EDT    3.19   4.04 -999 -999 -999 -99.9  84.2 -999.9 12.7  1.006 -99.9 -99.99 -9.99
2019/09/15 21:00 EDT    3.26   4.09 -999 -999 -999 -99.9  84.2 -999.9 12.1  1.006 -99.9 -99.99 -9.99
2019/09/15 21:06 EDT    3.33   4.14 -999 -999 -999 -99.9  84.2 -999.9 12.4  1.006 -99.9 -99.99 -9.99
2019/09/15 21:12 EDT    3.39   4.19 -999 -999 -999 -99.9  84.2 -999.9 12.3  1.006 -99.9 -99.99 -9.99
2019/09/15 21:18 EDT    3.45   4.24 -999 -999 -999 -99.9  84.0 -999.9 12.4  1.006 -99.9 -99.99 -9.99
2019/09/15 21:24 EDT    3.51   4.28 -999 -999 -999 -99.9  84.0 -999.9 12.7  1.006 -99.9 -99.99 -9.99
2019/09/15 21:30 EDT    3.56   4.32 -999 -999 -999 -99.9  84.0 -999.9 12.8  1.006 -99.9 -99.99 -9.99
2019/09/15 21:36 EDT    3.61   4.36 -999 -999 -999 -99.9  84.0 -999.9 12.7  1.006 -99.9 -99.99 -9.99
2019/09/15 21:42 EDT    3.65   4.38 -999 -999 -999 -99.9  84.0 -999.9 12.6  1.006 -99.9 -99.99 -9.99
2019/09/15 21:48 EDT    3.69   4.41 -999 -999 -999 -99.9  84.0 -999.9 12.7  1.006 -99.9 -99.99 -9.99
2019/09/15 21:54 EDT    3.73   4.44 -999 -999 -999 -99.9  84.0 -999.9 12.7  1.006 -99.9 -99.99 -9.99
2019/09/15 22:00 EDT    3.76   4.47 -999 -999 -999 -99.9  84.0 -999.9 12.8  1.006 -99.9 -99.99 -9.99
2019/09/15 22:06 EDT    3.79   4.50 -999 -999 -999 -99.9  84.0 -999.9 13.2  1.007 -99.9 -99.99 -9.99
2019/09/15 22:12 EDT    3.81   4.53 -999 -999 -999 -99.9  84.0 -999.9 13.3  1.007 -99.9 -99.99 -9.99
2019/09/15 22:18 EDT    3.83   4.54 -999 -999 -999 -99.9  84.0 -999.9 13.4  1.007 -99.9 -99.99 -9.99
2019/09/15 22:24 EDT    3.85   4.56 -999 -999 -999 -99.9  84.0 -999.9 13.6  1.007 -99.9 -99.99 -9.99
2019/09/15 22:30 EDT    3.87   4.58 -999 -999 -999 -99.9  84.0 -999.9 13.9  1.007 -99.9 -99.99 -9.99
2019/09/15 22:36 EDT    3.88   4.60 -999 -999 -999 -99.9  84.0 -999.9 14.2  1.007 -99.9 -99.99 -9.99
2019/09/15 22:42 EDT    3.89   4.62 -999 -999 -999 -99.9  84.0 -999.9 14.3  1.008 -99.9 -99.99 -9.99
2019/09/15 22:48 EDT    3.90   4.62 -999 -999 -999 -99.9  84.0 -999.9 14.5  1.008 -99.9 -99.99 -9.99
2019/09/15 22:54 EDT    3.91   4.63 -999 -999 -999 -99.9  84.0 -999.9 14.5  1.008 -99.9 -99.99 -9.99
2019/09/15 23:00 EDT    3.91   4.63 -999 -999 -999 -99.9  84.0 -999.9 14.6  1.008 -99.9 -99.99 -9.99
2019/09/15 23:06 EDT    3.91   4.63 -999 -999 -999 -99.9  84.0 -999.9 14.5  1.008 -99.9 -99.99 -9.99
2019/09/15 23:12 EDT    3.91   4.64 -999 -999 -999 -99.9  84.0 -999.9 14.7  1.008 -99.9 -99.99 -9.99
2019/09/15 23:18 EDT    3.91   4.64 -999 -999 -999 -99.9  84.0 -999.9 14.9  1.008 -99.9 -99.99 -9.99
2019/09/15 23:24 EDT    3.90   4.65 -999 -999 -999 -99.9  84.0 -999.9 14.9  1.008 -99.9 -99.99 -9.99
2019/09/15 23:30 EDT    3.89   4.65 -999 -999 -999 -99.9  84.0 -999.9 15.1  1.008 -99.9 -99.99 -9.99
2019/09/15 23:36 EDT    3.88   4.65 -999 -999 -999 -99.9  84.0 -999.9 15.3  1.008 -99.9 -99.99 -9.99
2019/09/15 23:42 EDT    3.87   4.65 -999 -999 -999 -99.9  84.0 -999.9 16.0  1.009 -99.9 -99.99 -9.99
2019/09/15 23:48 EDT    3.85   4.64 -999 -999 -999 -99.9  84.0 -999.9 16.7  1.009 -99.9 -99.99 -9.99
2019/09/15 23:54 EDT    3.83   4.63 -999 -999 -999 -99.9  84.2 -999.9 17.1  1.010 -99.9 -99.99 -9.99
2019/09/16 00:00 EDT    3.81   4.61 -999 -999 -999 -99.9  84.2 -999.9 17.4  1.010 -99.9 -99.99 -9.99
2019/09/16 00:06 EDT    3.78   4.59 -999 -999 -999 -99.9  84.2 -999.9 17.1  1.010 -99.9 -99.99 -9.99
2019/09/16 00:12 EDT    3.75   4.57 -999 -999 -999 -99.9  84.2 -999.9 17.3  1.010 -99.9 -99.99 -9.99
2019/09/16 00:18 EDT    3.72   4.55 -999 -999 -999 -99.9  84.2 -999.9 17.2  1.010 -99.9 -99.99 -9.99
2019/09/16 00:24 EDT    3.68   4.52 -999 -999 -999 -99.9  84.0 -999.9 17.5  1.010 -99.9 -99.99 -9.99
2019/09/16 00:30 EDT    3.63   4.50 -999 -999 -999 -99.9  84.0 -999.9 17.6  1.010 -99.9 -99.99 -9.99
2019/09/16 00:36 EDT    3.58   4.46 -999 -999 -999 -99.9  84.0 -999.9 17.6  1.010 -99.9 -99.99 -9.99
2019/09/16 00:42 EDT    3.53   4.41 -999 -999 -999 -99.9  84.0 -999.9 17.8  1.010 -99.9 -99.99 -9.99
2019/09/16 00:48 EDT    3.47   4.36 -999 -999 -999 -99.9  84.0 -999.9 17.9  1.010 -99.9 -99.99 -9.99
2019/09/16 00:54 EDT    3.41   4.31 -999 -999 -999 -99.9  84.0 -999.9 18.0  1.010 -99.9 -99.99 -9.99
2019/09/16 01:00 EDT    3.34   4.26 -999 -999 -999 -99.9  84.0 -999.9 17.8  1.010 -99.9 -99.99 -9.99
2019/09/16 01:06 EDT    3.26   4.21 -999 -999 -999 -99.9  84.0 -999.9 17.8  1.010 -99.9 -99.99 -9.99
2019/09/16 01:12 EDT    3.19   4.15 -999 -999 -999 -99.9  84.0 -999.9 18.0  1.010 -99.9 -99.99 -9.99
2019/09/16 01:18 EDT    3.11   4.07 -999 -999 -999 -99.9  84.0 -999.9 18.1  1.010 -99.9 -99.99 -9.99
2019/09/16 01:24 EDT    3.02   3.99 -999 -999 -999 -99.9  84.0 -999.9 18.1  1.010 -99.9 -99.99 -9.99
2019/09/16 01:30 EDT    2.93   3.91 -999 -999 -999 -99.9  84.0 -999.9 18.2  1.010 -99.9 -99.99 -9.99
2019/09/16 01:36 EDT    2.84   3.83 -999 -999 -999 -99.9  84.0 -999.9 18.2  1.010 -99.9 -99.99 -9.99
2019/09/16 01:42 EDT    2.74   3.75 -999 -999 -999 -99.9  84.0 -999.9 18.1  1.010 -99.9 -99.99 -9.99
2019/09/16 01:48 EDT    2.65   3.66 -999 -999 -999 -99.9  84.0 -999.9 18.2  1.010 -99.9 -99.99 -9.99
2019/09/16 01:54 EDT    2.55   3.57 -999 -999 -999 -99.9  84.0 -999.9 18.1  1.010 -99.9 -99.99 -9.99
2019/09/16 02:00 EDT    2.45   3.48 -999 -999 -999 -99.9  84.2 -999.9 17.5  1.010 -99.9 -99.99 -9.99
2019/09/16 02:06 EDT    2.35   3.39 -999 -999 -999 -99.9  84.2 -999.9 17.5  1.010 -99.9 -99.99 -9.99
2019/09/16 02:12 EDT    2.25   3.30 -999 -999 -999 -99.9  84.2 -999.9 17.0  1.009 -99.9 -99.99 -9.99
2019/09/16 02:18 EDT    2.15   3.21 -999 -999 -999 -99.9  84.2 -999.9 16.9  1.009 -99.9 -99.99 -9.99
2019/09/16 02:24 EDT    2.05   3.12 -999 -999 -999 -99.9  84.2 -999.9 16.9  1.009 -99.9 -99.99 -9.99
2019/09/16 02:30 EDT    1.95   3.03 -999 -999 -999 -99.9  84.0 -999.9 17.2  1.010 -99.9 -99.99 -9.99
2019/09/16 02:36 EDT    1.85   2.95 -999 -999 -999 -99.9  84.0 -999.9 17.1  1.010 -99.9 -99.99 -9.99
2019/09/16 02:42 EDT    1.76   2.85 -999 -999 -999 -99.9  84.0 -999.9 17.0  1.010 -99.9 -99.99 -9.99
2019/09/16 02:48 EDT    1.67   2.76 -999 -999 -999 -99.9  84.0 -999.9 16.7  1.009 -99.9 -99.99 -9.99
2019/09/16 02:54 EDT    1.58   2.68 -999 -999 -999 -99.9  84.0 -999.9 16.9  1.009 -99.9 -99.99 -9.99
2019/09/16 03:00 EDT    1.50   2.60 -999 -999 -999 -99.9  84.0 -999.9 17.2  1.010 -99.9 -99.99 -9.99
2019/09/16 03:06 EDT    1.41   2.51 -999 -999 -999 -99.9  84.0 -999.9 17.2  1.010 -99.9 -99.99 -9.99
2019/09/16 03:12 EDT    1.34   2.43 -999 -999 -999 -99.9  84.0 -999.9 17.1  1.010 -99.9 -99.99 -9.99
2019/09/16 03:18 EDT    1.26   2.36 -999 -999 -999 -99.9  84.0 -999.9 17.9  1.010 -99.9 -99.99 -9.99
2019/09/16 03:24 EDT    1.19   2.29 -999 -999 -999 -99.9  84.0 -999.9 18.2  1.010 -99.9 -99.99 -9.99
2019/09/16 03:30 EDT    1.13   2.22 -999 -999 -999 -99.9  84.0 -999.9 18.0  1.010 -99.9 -99.99 -9.99
2019/09/16 03:36 EDT    1.06   2.17 -999 -999 -999 -99.9  84.0 -999.9 18.1  1.010 -99.9 -99.99 -9.99
2019/09/16 03:42 EDT    1.00   2.11 -999 -999 -999 -99.9  84.0 -999.9 17.1  1.010 -99.9 -99.99 -9.99
2019/09/16 03:48 EDT    0.95   2.05 -999 -999 -999 -99.9  83.8 -999.9 16.7  1.009 -99.9 -99.99 -9.99
2019/09/16 03:54 EDT    0.90   1.99 -999 -999 -999 -99.9  83.8 -999.9 16.9  1.010 -99.9 -99.99 -9.99
2019/09/16 04:00 EDT    0.85   1.93 -999 -999 -999 -99.9  83.8 -999.9 17.2  1.010 -99.9 -99.99 -9.99
2019/09/16 04:06 EDT    0.81   1.88 -999 -999 -999 -99.9  83.8 -999.9 17.6  1.010 -99.9 -99.99 -9.99
2019/09/16 04:12 EDT    0.77   1.85 -999 -999 -999 -99.9  83.8 -999.9 17.9  1.010 -99.9 -99.99 -9.99
2019/09/16 04:18 EDT    0.74   1.82 -999 -999 -999 -99.9  83.7 -999.9 15.8  1.009 -99.9 -99.99 -9.99
2019/09/16 04:24 EDT    0.71   1.78 -999 -999 -999 -99.9  83.7 -999.9 16.3  1.009 -99.9 -99.99 -9.99
2019/09/16 04:30 EDT    0.68   1.67 -999 -999 -999 -99.9  83.8 -999.9 16.6  1.009 -99.9 -99.99 -9.99
2019/09/16 04:36 EDT    0.65   1.71 -999 -999 -999 -99.9  83.8 -999.9 16.5  1.009 -99.9 -99.99 -9.99
2019/09/16 04:42 EDT    0.63   1.68 -999 -999 -999 -99.9  83.8 -999.9 16.0  1.009 -99.9 -99.99 -9.99
2019/09/16 04:48 EDT    0.62   1.66 -999 -999 -999 -99.9  83.8 -999.9 15.9  1.009 -99.9 -99.99 -9.99
2019/09/16 04:54 EDT    0.60   1.64 -999 -999 -999 -99.9  83.7 -999.9 15.2  1.008 -99.9 -99.99 -9.99
2019/09/16 05:00 EDT    0.59   1.62 -999 -999 -999 -99.9  83.7 -999.9 14.9  1.008 -99.9 -99.99 -9.99
2019/09/16 05:06 EDT    0.58   1.61 -999 -999 -999 -99.9  83.8 -999.9 15.5  1.008 -99.9 -99.99 -9.99
2019/09/16 05:12 EDT    0.58   1.59 -999 -999 -999 -99.9  83.8 -999.9 15.8  1.009 -99.9 -99.99 -9.99
2019/09/16 05:18 EDT    0.58   1.56 -999 -999 -999 -99.9  83.8 -999.9 16.0  1.009 -99.9 -99.99 -9.99
2019/09/16 05:24 EDT    0.59   1.57 -999 -999 -999 -99.9  83.8 -999.9 15.7  1.009 -99.9 -99.99 -9.99
2019/09/16 05:30 EDT    0.59   1.55 -999 -999 -999 -99.9  83.8 -999.9 16.0  1.009 -99.9 -99.99 -9.99
2019/09/16 05:36 EDT    0.60   1.56 -999 -999 -999 -99.9  83.7 -999.9 15.2  1.008 -99.9 -99.99 -9.99
2019/09/16 05:42 EDT    0.62   1.55 -999 -999 -999 -99.9  83.8 -999.9 15.7  1.009 -99.9 -99.99 -9.99
2019/09/16 05:48 EDT    0.64   1.56 -999 -999 -999 -99.9  83.7 -999.9 14.5  1.008 -99.9 -99.99 -9.99
2019/09/16 05:54 EDT    0.66   1.57 -999 -999 -999 -99.9  83.7 -999.9 14.7  1.008 -99.9 -99.99 -9.99
2019/09/16 06:00 EDT    0.69   1.58 -999 -999 -999 -99.9  83.7 -999.9 14.7  1.008 -99.9 -99.99 -9.99
2019/09/16 06:06 EDT    0.72   1.59 -999 -999 -999 -99.9  83.7 -999.9 14.5  1.008 -99.9 -99.99 -9.99
2019/09/16 06:12 EDT    0.76   1.62 -999 -999 -999 -99.9  83.7 -999.9 15.3  1.008 -99.9 -99.99 -9.99
2019/09/16 06:18 EDT    0.80   1.65 -999 -999 -999 -99.9  83.7 -999.9 14.8  1.008 -99.9 -99.99 -9.99
2019/09/16 06:24 EDT    0.85   1.69 -999 -999 -999 -99.9  83.7 -999.9 14.5  1.008 -99.9 -99.99 -9.99
2019/09/16 06:30 EDT    0.90   1.73 -999 -999 -999 -99.9  83.7 -999.9 14.3  1.008 -99.9 -99.99 -9.99
2019/09/16 06:36 EDT    0.95   1.77 -999 -999 -999 -99.9  83.7 -999.9 14.1  1.007 -99.9 -99.99 -9.99
2019/09/16 06:42 EDT    1.01   1.81 -999 -999 -999 -99.9  83.7 -999.9 14.0  1.007 -99.9 -99.99 -9.99
2019/09/16 06:48 EDT    1.07   1.86 -999 -999 -999 -99.9  83.7 -999.9 14.1  1.007 -99.9 -99.99 -9.99
2019/09/16 06:54 EDT    1.14   1.94 -999 -999 -999 -99.9  83.5 -999.9 13.6  1.007 -99.9 -99.99 -9.99
2019/09/16 07:00 EDT    1.21   2.02 -999 -999 -999 -99.9  83.5 -999.9 13.5  1.007 -99.9 -99.99 -9.99
2019/09/16 07:06 EDT    1.28   2.10 -999 -999 -999 -99.9  83.5 -999.9 13.4  1.007 -99.9 -99.99 -9.99
2019/09/16 07:12 EDT    1.36   2.16 -999 -999 -999 -99.9  83.5 -999.9 13.3  1.007 -99.9 -99.99 -9.99
2019/09/16 07:18 EDT    1.44   2.24 -999 -999 -999 -99.9  83.5 -999.9 13.2  1.007 -99.9 -99.99 -9.99
2019/09/16 07:24 EDT    1.53   2.32 -999 -999 -999 -99.9  83.5 -999.9 13.2  1.007 -99.9 -99.99 -9.99
2019/09/16 07:30 EDT    1.62   2.43 -999 -999 -999 -99.9  83.5 -999.9 13.0  1.007 -99.9 -99.99 -9.99
2019/09/16 07:36 EDT    1.71   2.54 -999 -999 -999 -99.9  83.3 -999.9 12.8  1.007 -99.9 -99.99 -9.99
2019/09/16 07:42 EDT    1.80   2.64 -999 -999 -999 -99.9  83.5 -999.9 12.9  1.007 -99.9 -99.99 -9.99
2019/09/16 07:48 EDT    1.90   2.74 -999 -999 -999 -99.9  83.5 -999.9 13.1  1.007 -99.9 -99.99 -9.99
2019/09/16 07:54 EDT    1.99   2.83 -999 -999 -999 -99.9  83.5 -999.9 13.2  1.007 -99.9 -99.99 -9.99
2019/09/16 08:00 EDT    2.09   2.92 -999 -999 -999 -99.9  83.5 -999.9 13.6  1.007 -99.9 -99.99 -9.99
2019/09/16 08:06 EDT    2.19   3.01 -999 -999 -999 -99.9  83.7 -999.9 14.2  1.008 -99.9 -99.99 -9.99
2019/09/16 08:12 EDT    2.29   3.11 -999 -999 -999 -99.9  83.5 -999.9 13.8  1.007 -99.9 -99.99 -9.99
2019/09/16 08:18 EDT    2.38   3.21 -999 -999 -999 -99.9  83.7 -999.9 14.5  1.008 -99.9 -99.99 -9.99
2019/09/16 08:24 EDT    2.48   3.31 -999 -999 -999 -99.9  83.7 -999.9 14.6  1.008 -99.9 -99.99 -9.99
2019/09/16 08:30 EDT    2.58   3.41 -999 -999 -999 -99.9  83.7 -999.9 14.3  1.008 -99.9 -99.99 -9.99
2019/09/16 08:36 EDT    2.67   3.49 -999 -999 -999 -99.9  83.7 -999.9 14.4  1.008 -99.9 -99.99 -9.99
2019/09/16 08:42 EDT    2.76   3.57 -999 -999 -999 -99.9  83.7 -999.9 14.3  1.008 -99.9 -99.99 -9.99
2019/09/16 08:48 EDT    2.85   3.65 -999 -999 -999 -99.9  83.7 -999.9 14.6  1.008 -99.9 -99.99 -9.99
2019/09/16 08:54 EDT    2.94   3.74 -999 -999 -999 -99.9  83.7 -999.9 14.8  1.008 -99.9 -99.99 -9.99
2019/09/16 09:00 EDT    3.03   3.82 -999 -999 -999 -99.9  83.7 -999.9 14.4  1.008 -99.9 -99.99 -9.99
2019/09/16 09:06 EDT    3.11   3.89 -999 -999 -999 -99.9  83.7 -999.9 14.5  1.008 -99.9 -99.99 -9.99
2019/09/16 09:12 EDT    3.19   3.98 -999 -999 -999 -99.9  83.7 -999.9 14.8  1.008 -99.9 -99.99 -9.99
2019/09/16 09:18 EDT    3.26   4.04 -999 -999 -999 -99.9  83.7 -999.9 14.5  1.008 -99.9 -99.99 -9.99
2019/09/16 09:24 EDT    3.33   4.09 -999 -999 -999 -99.9  83.7 -999.9 14.5  1.008 -99.9 -99.99 -9.99
2019/09/16 09:30 EDT    3.39   4.16 -999 -999 -999 -99.9  83.7 -999.9 14.5  1.008 -99.9 -99.99 -9.99
2019/09/16 09:36 EDT    3.45   4.19 -999 -999 -999 -99.9  83.7 -999.9 14.3  1.008 -99.9 -99.99 -9.99
2019/09/16 09:42 EDT    3.51   4.22 -999 -999 -999 -99.9  83.7 -999.9 14.5  1.008 -99.9 -99.99 -9.99
2019/09/16 09:48 EDT    3.56   4.30 -999 -999 -999 -99.9  83.7 -999.9 14.4  1.008 -99.9 -99.99 -9.99
2019/09/16 09:54 EDT    3.61   4.32 -999 -999 -999 -99.9  83.7 -999.9 14.5  1.008 -99.9 -99.99 -9.99
2019/09/16 10:00 EDT    3.65   4.38 -999 -999 -999 -99.9  83.7 -999.9 14.4  1.008 -99.9 -99.99 -9.99
2019/09/16 10:06 EDT    3.69   4.41 -999 -999 -999 -99.9  83.7 -999.9 14.4  1.008 -99.9 -99.99 -9.99
2019/09/16 10:12 EDT    3.72   4.45 -999 -999 -999 -99.9  83.8 -999.9 14.2  1.008 -99.9 -99.99 -9.99
2019/09/16 10:18 EDT    3.75   4.45 -999 -999 -999 -99.9  83.7 -999.9 14.2  1.008 -99.9 -99.99 -9.99
2019/09/16 10:24 EDT    3.78   4.48 -999 -999 -999 -99.9  83.8 -999.9 14.3  1.008 -99.9 -99.99 -9.99
2019/09/16 10:30 EDT    3.80   4.50 -999 -999 -999 -99.9  83.8 -999.9 14.5  1.008 -99.9 -99.99 -9.99
2019/09/16 10:36 EDT    3.82   4.54 -999 -999 -999 -99.9  83.8 -999.9 14.8  1.008 -99.9 -99.99 -9.99
2019/09/16 10:42 EDT    3.83   4.43 -999 -999 -999 -99.9  83.8 -999.9 14.9  1.008 -99.9 -99.99 -9.99
2019/09/16 10:48 EDT    3.84   4.54 -999 -999 -999 -99.9  83.8 -999.9 15.3  1.008 -99.9 -99.99 -9.99
2019/09/16 10:54 EDT    3.85   4.60 -999 -999 -999 -99.9  83.8 -999.9 15.2  1.008 -99.9 -99.99 -9.99
2019/09/16 11:00 EDT    3.86   4.61 -999 -999 -999 -99.9  83.8 -999.9 15.1  1.008 -99.9 -99.99 -9.99
2019/09/16 11:06 EDT    3.86   4.59 -999 -999 -999 -99.9  83.8 -999.9 15.2  1.008 -99.9 -99.99 -9.99
2019/09/16 11:12 EDT    3.86   4.63 -999 -999 -999 -99.9  83.8 -999.9 15.2  1.008 -99.9 -99.99 -9.99
2019/09/16 11:18 EDT    3.86   4.65 -999 -999 -999 -99.9  83.8 -999.9 15.2  1.008 -99.9 -99.99 -9.99
2019/09/16 11:24 EDT    3.86   4.62 -999 -999 -999 -99.9  83.8 -999.9 15.1  1.008 -99.9 -99.99 -9.99
2019/09/16 11:30 EDT    3.85   4.62 -999 -999 -999 -99.9  83.8 -999.9 15.1  1.008 -99.9 -99.99 -9.99
2019/09/16 11:36 EDT    3.84   4.62 -999 -999 -999 -99.9  83.8 -999.9 15.2  1.008 -99.9 -99.99 -9.99
2019/09/16 11:42 EDT    3.83   4.62 -999 -999 -999 -99.9  83.8 -999.9 15.3  1.008 -99.9 -99.99 -9.99
2019/09/16 11:48 EDT    3.82   4.63 -999 -999 -999 -99.9  84.0 -999.9 15.4  1.008 -99.9 -99.99 -9.99
2019/09/16 11:54 EDT    3.81   4.61 -999 -999 -999 -99.9  84.0 -999.9 15.4  1.008 -99.9 -99.99 -9.99
2019/09/16 12:00 EDT    3.79   4.60 -999 -999 -999 -99.9  84.0 -999.9 15.5  1.008 -99.9 -99.99 -9.99
2019/09/16 12:06 EDT    3.77   4.59 -999 -999 -999 -99.9  84.0 -999.9 15.6  1.009 -99.9 -99.99 -9.99
2019/09/16 12:12 EDT    3.75   4.58 -999 -999 -999 -99.9  84.0 -999.9 15.9  1.009 -99.9 -99.99 -9.99
2019/09/16 12:18 EDT    3.73   4.55 -999 -999 -999 -99.9  84.2 -999.9 16.1  1.009 -99.9 -99.99 -9.99
2019/09/16 12:24 EDT    3.70   4.51 -999 -999 -999 -99.9  84.2 -999.9 16.2  1.009 -99.9 -99.99 -9.99
2019/09/16 12:30 EDT    3.67   4.48 -999 -999 -999 -99.9  84.2 -999.9 16.3  1.009 -99.9 -99.99 -9.99
2019/09/16 12:36 EDT    3.63   4.45 -999 -999 -999 -99.9  84.2 -999.9 17.1  1.010 -99.9 -99.99 -9.99
2019/09/16 12:42 EDT    3.60   4.42 -999 -999 -999 -99.9  84.2 -999.9 17.5  1.010 -99.9 -99.99 -9.99
2019/09/16 12:48 EDT    3.55   4.38 -999 -999 -999 -99.9  84.2 -999.9 17.8  1.010 -99.9 -99.99 -9.99
2019/09/16 12:54 EDT    3.51   4.33 -999 -999 -999 -99.9  84.2 -999.9 18.0  1.010 -99.9 -99.99 -9.99
2019/09/16 13:00 EDT    3.46   4.29 -999 -999 -999 -99.9  84.2 -999.9 18.0  1.010 -99.9 -99.99 -9.99
2019/09/16 13:06 EDT    3.40   4.22 -999 -999 -999 -99.9  84.2 -999.9 18.1  1.010 -99.9 -99.99 -9.99
2019/09/16 13:12 EDT    3.34   4.16 -999 -999 -999 -99.9  84.2 -999.9 18.0  1.010 -99.9 -99.99 -9.99
2019/09/16 13:18 EDT    3.28   4.10 -999 -999 -999 -99.9  84.2 -999.9 18.2  1.010 -99.9 -99.99 -9.99
2019/09/16 13:24 EDT    3.21   4.05 -999 -999 -999 -99.9  84.0 -999.9 18.2  1.010 -99.9 -99.99 -9.99
2019/09/16 13:30 EDT    3.14   3.98 -999 -999 -999 -99.9  84.0 -999.9 18.3  1.011 -99.9 -99.99 -9.99
2019/09/16 13:36 EDT    3.07   3.91 -999 -999 -999 -99.9  84.2 -999.9 18.2  1.010 -99.9 -99.99 -9.99
2019/09/16 13:42 EDT    2.99   3.84 -999 -999 -999 -99.9  84.2 -999.9 18.2  1.010 -99.9 -99.99 -9.99
2019/09/16 13:48 EDT    2.91   3.75 -999 -999 -999 -99.9  84.0 -999.9 18.3  1.010 -99.9 -99.99 -9.99
2019/09/16 13:54 EDT    2.82   3.67 -999 -999 -999 -99.9  84.0 -999.9 18.3  1.011 -99.9 -99.99 -9.99
2019/09/16 14:00 EDT    2.73   3.58 -999 -999 -999 -99.9  84.0 -999.9 18.2  1.010 -99.9 -99.99 -9.99
2019/09/16 14:06 EDT    2.64   3.49 -999 -999 -999 -99.9  84.4 -999.9 18.1  1.010 -99.9 -99.99 -9.99
2019/09/16 14:12 EDT    2.55   3.40 -999 -999 -999 -99.9  84.6 -999.9 17.7  1.010 -99.9 -99.99 -9.99
2019/09/16 14:18 EDT    2.46   3.31 -999 -999 -999 -99.9  84.4 -999.9 17.6  1.010 -99.9 -99.99 -9.99
2019/09/16 14:24 EDT    2.36   3.23 -999 -999 -999 -99.9  84.4 -999.9 17.5  1.010 -99.9 -99.99 -9.99
2019/09/16 14:30 EDT    2.27   3.14 -999 -999 -999 -99.9  84.4 -999.9 17.5  1.010 -99.9 -99.99 -9.99
2019/09/16 14:36 EDT    2.18   3.04 -999 -999 -999 -99.9  84.4 -999.9 17.4  1.010 -99.9 -99.99 -9.99
2019/09/16 14:42 EDT    2.08   2.94 -999 -999 -999 -99.9  84.4 -999.9 17.3  1.010 -99.9 -99.99 -9.99
2019/09/16 14:48 EDT    1.99   2.84 -999 -999 -999 -99.9  84.4 -999.9 17.3  1.010 -99.9 -99.99 -9.99
2019/09/16 14:54 EDT    1.90   2.76 -999 -999 -999 -99.9  84.4 -999.9 17.3  1.010 -99.9 -99.99 -9.99
2019/09/16 15:00 EDT    1.81   2.70 -999 -999 -999 -99.9  84.4 -999.9 17.3  1.010 -99.9 -99.99 -9.99
2019/09/16 15:06 EDT    1.72   2.55 -999 -999 -999 -99.9  84.4 -999.9 17.3  1.010 -99.9 -99.99 -9.99
2019/09/16 15:12 EDT    1.64   2.42 -999 -999 -999 -99.9  84.7 -999.9 17.0  1.009 -99.9 -99.99 -9.99
2019/09/16 15:18 EDT    1.56   2.40 -999 -999 -999 -99.9  84.7 -999.9 17.1  1.009 -99.9 -99.99 -9.99
2019/09/16 15:24 EDT    1.49   2.35 -999 -999 -999 -99.9  84.7 -999.9 17.1  1.010 -99.9 -99.99 -9.99
2019/09/16 15:30 EDT    1.41   2.25 -999 -999 -999 -99.9  84.6 -999.9 17.3  1.010 -99.9 -99.99 -9.99
2019/09/16 15:36 EDT    1.34   2.19 -999 -999 -999 -99.9  84.4 -999.9 17.5  1.010 -99.9 -99.99 -9.99
2019/09/16 15:42 EDT    1.28   2.12 -999 -999 -999 -99.9  83.8 -999.9 18.2  1.010 -99.9 -99.99 -9.99
2019/09/16 15:48 EDT    1.22   2.06 -999 -999 -999 -99.9  84.6 -999.9 17.4  1.010 -99.9 -99.99 -9.99
2019/09/16 15:54 EDT    1.16   1.99 -999 -999 -999 -99.9  84.2 -999.9 17.7  1.010 -99.9 -99.99 -9.99
2019/09/16 16:00 EDT    1.11   1.94 -999 -999 -999 -99.9  84.6 -999.9 17.3  1.010 -99.9 -99.99 -9.99
2019/09/16 16:06 EDT    1.06   1.88 -999 -999 -999 -99.9  84.4 -999.9 17.4  1.010 -99.9 -99.99 -9.99
2019/09/16 16:12 EDT    1.01   1.85 -999 -999 -999 -99.9  84.2 -999.9 17.6  1.010 -99.9 -99.99 -9.99
2019/09/16 16:18 EDT    0.97   1.79 -999 -999 -999 -99.9  84.6 -999.9 17.0  1.009 -99.9 -99.99 -9.99
2019/09/16 16:24 EDT    0.93   1.75 -999 -999 -999 -99.9  84.7 -999.9 16.5  1.009 -99.9 -99.99 -9.99
2019/09/16 16:30 EDT    0.90   1.74 -999 -999 -999 -99.9  84.4 -999.9 16.8  1.009 -99.9 -99.99 -9.99
2019/09/16 16:36 EDT    0.87   1.68 -999 -999 -999 -99.9  84.6 -999.9 16.5  1.009 -99.9 -99.99 -9.99
2019/09/16 16:42 EDT    0.84   1.68 -999 -999 -999 -99.9  84.4 -999.9 16.7  1.009 -99.9 -99.99 -9.99
2019/09/16 16:48 EDT    0.82   1.63 -999 -999 -999 -99.9  84.4 -999.9 16.5  1.009 -99.9 -99.99 -9.99
2019/09/16 16:54 EDT    0.80   1.61 -999 -999 -999 -99.9  84.6 -999.9 16.3  1.009 -99.9 -99.99 -9.99
2019/09/16 17:00 EDT    0.78   1.59 -999 -999 -999 -99.9  84.4 -999.9 16.4  1.009 -99.9 -99.99 -9.99
2019/09/16 17:06 EDT    0.77   1.59 -999 -999 -999 -99.9  84.6 -999.9 16.0  1.009 -99.9 -99.99 -9.99
2019/09/16 17:12 EDT    0.76   1.56 -999 -999 -999 -99.9  84.6 -999.9 16.0  1.009 -99.9 -99.99 -9.99
2019/09/16 17:18 EDT    0.75   1.54 -999 -999 -999 -99.9  84.7 -999.9 15.4  1.008 -99.9 -99.99 -9.99
2019/09/16 17:24 EDT    0.75   1.54 -999 -999 -999 -99.9  84.7 -999.9 15.1  1.008 -99.9 -99.99 -9.99
2019/09/16 17:30 EDT    0.75   1.52 -999 -999 -999 -99.9  84.9 -999.9 14.8  1.008 -99.9 -99.99 -9.99
2019/09/16 17:36 EDT    0.75   1.50 -999 -999 -999 -99.9  84.7 -999.9 15.5  1.008 -99.9 -99.99 -9.99
2019/09/16 17:42 EDT    0.76   1.50 -999 -999 -999 -99.9  84.7 -999.9 15.1  1.008 -99.9 -99.99 -9.99
2019/09/16 17:48 EDT    0.76   1.51 -999 -999 -999 -99.9  84.9 -999.9 14.9  1.008 -99.9 -99.99 -9.99
2019/09/16 17:54 EDT    0.78   1.50 -999 -999 -999 -99.9  84.9 -999.9 14.9  1.008 -99.9 -99.99 -9.99
2019/09/16 18:00 EDT    0.79   1.48 -999 -999 -999 -99.9  84.9 -999.9 15.0  1.008 -99.9 -99.99 -9.99
2019/09/16 18:06 EDT    0.81   1.50 -999 -999 -999 -99.9  84.9 -999.9 14.8  1.008 -99.9 -99.99 -9.99
2019/09/16 18:12 EDT    0.83   1.53 -999 -999 -999 -99.9  84.7 -999.9 14.8  1.008 -99.9 -99.99 -9.99
2019/09/16 18:18 EDT    0.86   1.53 -999 -999 -999 -99.9  84.7 -999.9 14.8  1.008 -99.9 -99.99 -9.99
2019/09/16 18:24 EDT    0.89   1.56 -999 -999 -999 -99.9  84.9 -999.9 14.5  1.008 -99.9 -99.99 -9.99
2019/09/16 18:30 EDT    0.92   1.58 -999 -999 -999 -99.9  84.9 -999.9 14.2  1.007 -99.9 -99.99 -9.99
2019/09/16 18:36 EDT    0.95   1.62 -999 -999 -999 -99.9  84.7 -999.9 14.5  1.008 -99.9 -99.99 -9.99
2019/09/16 18:42 EDT    1.00   1.63 -999 -999 -999 -99.9  84.7 -999.9 14.5  1.008 -99.9 -99.99 -9.99
2019/09/16 18:48 EDT    1.04   1.68 -999 -999 -999 -99.9  84.7 -999.9 14.2  1.007 -99.9 -99.99 -9.99
2019/09/16 18:54 EDT    1.09   1.71 -999 -999 -999 -99.9  84.7 -999.9 14.2  1.007 -99.9 -99.99 -9.99
2019/09/16 19:00 EDT    1.14   1.78 -999 -999 -999 -99.9  84.7 -999.9 13.9  1.007 -99.9 -99.99 -9.99
2019/09/16 19:06 EDT    1.20   1.80 -999 -999 -999 -99.9  84.7 -999.9 13.7  1.007 -99.9 -99.99 -9.99
2019/09/16 19:12 EDT    1.26   1.88 -999 -999 -999 -99.9  84.7 -999.9 13.8  1.007 -99.9 -99.99 -9.99
2019/09/16 19:18 EDT    1.32   1.96 -999 -999 -999 -99.9  84.7 -999.9 13.9  1.007 -99.9 -99.99 -9.99
2019/09/16 19:24 EDT    1.39   2.03 -999 -999 -999 -99.9  84.6 -999.9 13.9  1.007 -99.9 -99.99 -9.99
2019/09/16 19:30 EDT    1.46   2.13 -999 -999 -999 -99.9  84.6 -999.9 14.0  1.007 -99.9 -99.99 -9.99
2019/09/16 19:36 EDT    1.54   2.23 -999 -999 -999 -99.9  84.7 -999.9 13.5  1.007 -99.9 -99.99 -9.99
2019/09/16 19:42 EDT    1.61   2.31 -999 -999 -999 -99.9  84.6 -999.9 13.5  1.007 -99.9 -99.99 -9.99
2019/09/16 19:48 EDT    1.69   2.37 -999 -999 -999 -99.9  84.7 -999.9 13.2  1.007 -99.9 -99.99 -9.99
2019/09/16 19:54 EDT    1.78   2.48 -999 -999 -999 -99.9  84.7 -999.9 13.2  1.007 -99.9 -99.99 -9.99
2019/09/16 20:00 EDT    1.86   2.62 -999 -999 -999 -99.9  84.7 -999.9 13.1  1.006 -99.9 -99.99 -9.99
2019/09/16 20:06 EDT    1.95   2.75 -999 -999 -999 -99.9  84.6 -999.9 12.9  1.006 -99.9 -99.99 -9.99
2019/09/16 20:12 EDT    2.04   2.79 -999 -999 -999 -99.9  84.6 -999.9 13.1  1.007 -99.9 -99.99 -9.99
2019/09/16 20:18 EDT    2.13   2.84 -999 -999 -999 -99.9  84.6 -999.9 13.1  1.007 -99.9 -99.99 -9.99
2019/09/16 20:24 EDT    2.23   3.07 -999 -999 -999 -99.9  84.6 -999.9 13.3  1.007 -99.9 -99.99 -9.99
2019/09/16 20:30 EDT    2.32   3.12 -999 -999 -999 -99.9  84.6 -999.9 13.2  1.007 -99.9 -99.99 -9.99
2019/09/16 20:36 EDT    2.41   3.20 -999 -999 -999 -99.9  84.4 -999.9 14.2  1.007 -99.9 -99.99 -9.99
2019/09/16 20:42 EDT    2.51   3.32 -999 -999 -999 -99.9  84.4 -999.9 14.3  1.007 -99.9 -99.99 -9.99
2019/09/16 20:48 EDT    2.60   3.41 -999 -999 -999 -99.9  84.4 -999.9 14.3  1.007 -99.9 -99.99 -9.99
2019/09/16 20:54 EDT    2.69   3.49 -999 -999 -999 -99.9  84.4 -999.9 14.8  1.008 -99.9 -99.99 -9.99
2019/09/16 21:00 EDT    2.78   3.59 -999 -999 -999 -99.9  84.4 -999.9 14.5  1.008 -99.9 -99.99 -9.99
2019/09/16 21:06 EDT    2.87   3.69 -999 -999 -999 -99.9  84.4 -999.9 14.0  1.007 -99.9 -99.99 -9.99
2019/09/16 21:12 EDT    2.95   3.75 -999 -999 -999 -99.9  84.4 -999.9 14.8  1.008 -99.9 -99.99 -9.99
2019/09/16 21:18 EDT    3.04   3.84 -999 -999 -999 -99.9  84.4 -999.9 14.6  1.008 -99.9 -99.99 -9.99
2019/09/16 21:24 EDT    3.12   3.90 -999 -999 -999 -99.9  84.4 -999.9 14.5  1.008 -99.9 -99.99 -9.99
2019/09/16 21:30 EDT    3.20   3.99 -999 -999 -999 -99.9  84.4 -999.9 14.4  1.008 -99.9 -99.99 -9.99
2019/09/16 21:36 EDT    3.27   4.07 -999 -999 -999 -99.9  84.4 -999.9 14.1  1.007 -99.9 -99.99 -9.99
2019/09/16 21:42 EDT    3.34   4.12 -999 -999 -999 -99.9  84.4 -999.9 14.2  1.007 -99.9 -99.99 -9.99
2019/09/16 21:48 EDT    3.41   4.18 -999 -999 -999 -99.9  84.4 -999.9 14.0  1.007 -99.9 -99.99 -9.99
2019/09/16 21:54 EDT    3.47   4.24 -999 -999 -999 -99.9  84.4 -999.9 13.9  1.007 -99.9 -99.99 -9.99
2019/09/16 22:00 EDT    3.52   4.29 -999 -999 -999 -99.9  84.4 -999.9 13.7  1.007 -99.9 -99.99 -9.99
2019/09/16 22:06 EDT    3.58   4.32 -999 -999 -999 -99.9  84.4 -999.9 13.8  1.007 -99.9 -99.99 -9.99
2019/09/16 22:12 EDT    3.63   4.37 -999 -999 -999 -99.9  84.4 -999.9 13.7  1.007 -99.9 -99.99 -9.99
2019/09/16 22:18 EDT    3.67   4.42 -999 -999 -999 -99.9  84.4 -999.9 13.8  1.007 -99.9 -99.99 -9.99
2019/09/16 22:24 EDT    3.71   4.45 -999 -999 -999 -99.9  84.4 -999.9 14.0  1.007 -99.9 -99.99 -9.99
2019/09/16 22:30 EDT    3.75   4.48 -999 -999 -999 -99.9  84.4 -999.9 14.0  1.007 -99.9 -99.99 -9.99
2019/09/16 22:36 EDT    3.78   4.51 -999 -999 -999 -99.9  84.4 -999.9 14.1  1.007 -99.9 -99.99 -9.99
2019/09/16 22:42 EDT    3.80   4.53 -999 -999 -999 -99.9  84.4 -999.9 14.1  1.007 -99.9 -99.99 -9.99
2019/09/16 22:48 EDT    3.83   4.55 -999 -999 -999 -99.9  84.4 -999.9 14.3  1.007 -99.9 -99.99 -9.99
2019/09/16 22:54 EDT    3.85   4.57 -999 -999 -999 -99.9  84.4 -999.9 14.3  1.008 -99.9 -99.99 -9.99
2019/09/16 23:00 EDT    3.86   4.59 -999 -999 -999 -99.9  84.4 -999.9 14.3  1.007 -99.9 -99.99 -9.99
2019/09/16 23:06 EDT    3.88   4.60 -999 -999 -999 -99.9  84.4 -999.9 14.4  1.008 -99.9 -99.99 -9.99
2019/09/16 23:12 EDT    3.88   4.61 -999 -999 -999 -99.9  84.4 -999.9 14.5  1.008 -99.9 -99.99 -9.99
2019/09/16 23:18 EDT    3.89   4.63 -999 -999 -999 -99.9  84.4 -999.9 14.8  1.008 -99.9 -99.99 -9.99
2019/09/16 23:24 EDT    3.89   4.64 -999 -999 -999 -99.9  84.4 -999.9 15.0  1.008 -99.9 -99.99 -9.99
2019/09/16 23:30 EDT    3.90   4.65 -999 -999 -999 -99.9  84.4 -999.9 15.0  1.008 -99.9 -99.99 -9.99
2019/09/16 23:36 EDT    3.89   4.65 -999 -999 -999 -99.9  84.4 -999.9 15.1  1.008 -99.9 -99.99 -9.99
2019/09/16 23:42 EDT    3.89   4.65 -999 -999 -999 -99.9  84.4 -999.9 14.9  1.008 -99.9 -99.99 -9.99
2019/09/16 23:48 EDT    3.88   4.66 -999 -999 -999 -99.9  84.4 -999.9 14.9  1.008 -99.9 -99.99 -9.99
2019/09/16 23:54 EDT    3.88   4.66 -999 -999 -999 -99.9  84.4 -999.9 15.0  1.008 -99.9 -99.99 -9.99
2019/09/17 00:00 EDT    3.87   4.65 -999 -999 -999 -99.9  84.2 -999.9 15.1  1.008 -99.9 -99.99 -9.99
2019/09/17 00:06 EDT    3.85   4.64 -999 -999 -999 -99.9  84.2 -999.9 15.1  1.008 -99.9 -99.99 -9.99
2019/09/17 00:12 EDT    3.84   4.63 -999 -999 -999 -99.9  84.2 -999.9 15.1  1.008 -99.9 -99.99 -9.99
2019/09/17 00:18 EDT    3.82   4.62 -999 -999 -999 -99.9  84.2 -999.9 15.1  1.008 -99.9 -99.99 -9.99
2019/09/17 00:24 EDT    3.80   4.60 -999 -999 -999 -99.9  84.2 -999.9 15.2  1.008 -99.9 -99.99 -9.99
2019/09/17 00:30 EDT    3.78   4.58 -999 -999 -999 -99.9  84.2 -999.9 15.1  1.008 -99.9 -99.99 -9.99
2019/09/17 00:36 EDT    3.76   4.55 -999 -999 -999 -99.9  84.2 -999.9 15.2  1.008 -99.9 -99.99 -9.99
2019/09/17 00:42 EDT    3.73   4.53 -999 -999 -999 -99.9  84.2 -999.9 15.4  1.008 -99.9 -99.99 -9.99
2019/09/17 00:48 EDT    3.70   4.50 -999 -999 -999 -99.9  84.2 -999.9 15.4  1.008 -99.9 -99.99 -9.99
2019/09/17 00:54 EDT    3.66   4.46 -999 -999 -999 -99.9  84.6 -999.9 16.3  1.009 -99.9 -99.99 -9.99
2019/09/17 01:00 EDT    3.62   4.41 -999 -999 -999 -99.9  84.4 -999.9 16.0  1.009 -99.9 -99.99 -9.99
2019/09/17 01:06 EDT    3.58   4.36 -999 -999 -999 -99.9  84.4 -999.9 16.4  1.009 -99.9 -99.99 -9.99
2019/09/17 01:12 EDT    3.53   4.32 -999 -999 -999 -99.9  84.4 -999.9 16.1  1.009 -99.9 -99.99 -9.99
2019/09/17 01:18 EDT    3.48   4.27 -999 -999 -999 -99.9  84.4 -999.9 16.2  1.009 -99.9 -99.99 -9.99
2019/09/17 01:24 EDT    3.43   4.21 -999 -999 -999 -99.9  84.4 -999.9 16.1  1.009 -99.9 -99.99 -9.99
2019/09/17 01:30 EDT    3.37   4.14 -999 -999 -999 -99.9  84.4 -999.9 16.4  1.009 -99.9 -99.99 -9.99
2019/09/17 01:36 EDT    3.31   4.07 -999 -999 -999 -99.9  84.6 -999.9 16.6  1.009 -99.9 -99.99 -9.99
2019/09/17 01:42 EDT    3.24   4.00 -999 -999 -999 -99.9  84.6 -999.9 17.1  1.010 -99.9 -99.99 -9.99
2019/09/17 01:48 EDT    3.16   3.91 -999 -999 -999 -99.9  84.6 -999.9 17.6  1.010 -99.9 -99.99 -9.99
2019/09/17 01:54 EDT    3.09   3.83 -999 -999 -999 -99.9  84.6 -999.9 17.4  1.010 -99.9 -99.99 -9.99
2019/09/17 02:00 EDT    3.01   3.74 -999 -999 -999 -99.9  84.6 -999.9 17.2  1.010 -99.9 -99.99 -9.99
2019/09/17 02:06 EDT    2.92   3.66 -999 -999 -999 -99.9  84.6 -999.9 16.8  1.009 -99.9 -99.99 -9.99
2019/09/17 02:12 EDT    2.83   3.56 -999 -999 -999 -99.9  84.6 -999.9 16.7  1.009 -99.9 -99.99 -9.99
2019/09/17 02:18 EDT    2.74   3.47 -999 -999 -999 -99.9  84.6 -999.9 16.6  1.009 -99.9 -99.99 -9.99
2019/09/17 02:24 EDT    2.65   3.39 -999 -999 -999 -99.9  84.6 -999.9 16.8  1.009 -99.9 -99.99 -9.99
2019/09/17 02:30 EDT    2.55   3.30 -999 -999 -999 -99.9  84.6 -999.9 17.4  1.010 -99.9 -99.99 -9.99
2019/09/17 02:36 EDT    2.46   3.20 -999 -999 -999 -99.9  84.6 -999.9 17.4  1.010 -99.9 -99.99 -9.99
2019/09/17 02:42 EDT    2.36   3.10 -999 -999 -999 -99.9  84.6 -999.9 17.4  1.010 -99.9 -99.99 -9.99
2019/09/17 02:48 EDT    2.26   3.01 -999 -999 -999 -99.9  84.6 -999.9 17.4  1.010 -99.9 -99.99 -9.99
2019/09/17 02:54 EDT    2.16   2.91 -999 -999 -999 -99.9  84.7 -999.9 17.3  1.010 -99.9 -99.99 -9.99
2019/09/17 03:00 EDT    2.06   2.83 -999 -999 -999 -99.9  84.7 -999.9 17.2  1.010 -99.9 -99.99 -9.99
2019/09/17 03:06 EDT    1.96   2.74 -999 -999 -999 -99.9  84.6 -999.9 17.3  1.010 -99.9 -99.99 -9.99
2019/09/17 03:12 EDT    1.86   2.64 -999 -999 -999 -99.9  84.6 -999.9 17.4  1.010 -99.9 -99.99 -9.99
2019/09/17 03:18 EDT    1.77   2.56 -999 -999 -999 -99.9  84.6 -999.9 17.1  1.009 -99.9 -99.99 -9.99
2019/09/17 03:24 EDT    1.67   2.47 -999 -999 -999 -99.9  84.4 -999.9 16.9  1.009 -99.9 -99.99 -9.99
2019/09/17 03:30 EDT    1.58   2.39 -999 -999 -999 -99.9  84.6 -999.9 17.2  1.010 -99.9 -99.99 -9.99
2019/09/17 03:36 EDT    1.50   2.32 -999 -999 -999 -99.9  84.6 -999.9 17.4  1.010 -99.9 -99.99 -9.99
2019/09/17 03:42 EDT    1.41   2.25 -999 -999 -999 -99.9  84.4 -999.9 17.1  1.010 -99.9 -99.99 -9.99
2019/09/17 03:48 EDT    1.33   2.18 -999 -999 -999 -99.9  84.4 -999.9 17.2  1.010 -99.9 -99.99 -9.99
2019/09/17 03:54 EDT    1.26   2.10 -999 -999 -999 -99.9  84.4 -999.9 16.8  1.009 -99.9 -99.99 -9.99
2019/09/17 04:00 EDT    1.18   2.03 -999 -999 -999 -99.9  84.4 -999.9 17.0  1.009 -99.9 -99.99 -9.99
2019/09/17 04:06 EDT    1.12   1.97 -999 -999 -999 -99.9  84.2 -999.9 16.7  1.009 -99.9 -99.99 -9.99
2019/09/17 04:12 EDT    1.06   1.92 -999 -999 -999 -99.9  84.2 -999.9 16.7  1.009 -99.9 -99.99 -9.99
2019/09/17 04:18 EDT    1.00   1.87 -999 -999 -999 -99.9  84.0 -999.9 16.1  1.009 -99.9 -99.99 -9.99
2019/09/17 04:24 EDT    0.94   1.82 -999 -999 -999 -99.9  84.2 -999.9 16.4  1.009 -99.9 -99.99 -9.99
2019/09/17 04:30 EDT    0.89   1.78 -999 -999 -999 -99.9  84.2 -999.9 15.8  1.009 -99.9 -99.99 -9.99
2019/09/17 04:36 EDT    0.85   1.75 -999 -999 -999 -99.9  84.2 -999.9 15.4  1.008 -99.9 -99.99 -9.99
2019/09/17 04:42 EDT    0.81   1.71 -999 -999 -999 -99.9  84.2 -999.9 15.7  1.009 -99.9 -99.99 -9.99
2019/09/17 04:48 EDT    0.78   1.67 -999 -999 -999 -99.9  84.2 -999.9 15.7  1.009 -99.9 -99.99 -9.99
2019/09/17 04:54 EDT    0.74   1.63 -999 -999 -999 -99.9  84.2 -999.9 15.6  1.008 -99.9 -99.99 -9.99
2019/09/17 05:00 EDT    0.72   1.60 -999 -999 -999 -99.9  84.2 -999.9 15.5  1.008 -99.9 -99.99 -9.99
2019/09/17 05:06 EDT    0.69   1.57 -999 -999 -999 -99.9  84.0 -999.9 15.0  1.008 -99.9 -99.99 -9.99
2019/09/17 05:12 EDT    0.68   1.54 -999 -999 -999 -99.9  84.0 -999.9 15.0  1.008 -99.9 -99.99 -9.99
2019/09/17 05:18 EDT    0.66   1.52 -999 -999 -999 -99.9  84.0 -999.9 14.9  1.008 -99.9 -99.99 -9.99
2019/09/17 05:24 EDT    0.65   1.49 -999 -999 -999 -99.9  84.0 -999.9 14.8  1.008 -99.9 -99.99 -9.99
2019/09/17 05:30 EDT    0.64   1.46 -999 -999 -999 -99.9  84.0 -999.9 14.9  1.008 -99.9 -99.99 -9.99
2019/09/17 05:36 EDT    0.64   1.44 -999 -999 -999 -99.9  84.0 -999.9 14.9  1.008 -99.9 -99.99 -9.99
2019/09/17 05:42 EDT    0.64   1.43 -999 -999 -999 -99.9  84.0 -999.9 14.6  1.008 -99.9 -99.99 -9.99
2019/09/17 05:48 EDT    0.64   1.43 -999 -999 -999 -99.9  84.0 -999.9 14.6  1.008 -99.9 -99.99 -9.99
2019/09/17 05:54 EDT    0.65   1.43 -999 -999 -999 -99.9  84.0 -999.9 14.3  1.008 -99.9 -99.99 -9.99
2019/09/17 06:00 EDT    0.66   1.42 -999 -999 -999 -99.9  84.0 -999.9 14.4  1.008 -99.9 -99.99 -9.99
2019/09/17 06:06 EDT    0.67   1.42 -999 -999 -999 -99.9  83.8 -999.9 14.1  1.007 -99.9 -99.99 -9.99
2019/09/17 06:12 EDT    0.69   1.42 -999 -999 -999 -99.9  83.8 -999.9 14.0  1.007 -99.9 -99.99 -9.99
2019/09/17 06:18 EDT    0.71   1.41 -999 -999 -999 -99.9  83.8 -999.9 14.2  1.007 -99.9 -99.99 -9.99
2019/09/17 06:24 EDT    0.73   1.42 -999 -999 -999 -99.9  84.0 -999.9 14.3  1.008 -99.9 -99.99 -9.99
2019/09/17 06:30 EDT    0.76   1.44 -999 -999 -999 -99.9  84.0 -999.9 14.3  1.008 -99.9 -99.99 -9.99
2019/09/17 06:36 EDT    0.79   1.46 -999 -999 -999 -99.9  84.0 -999.9 14.1  1.007 -99.9 -99.99 -9.99
2019/09/17 06:42 EDT    0.82   1.50 -999 -999 -999 -99.9  84.0 -999.9 13.8  1.007 -99.9 -99.99 -9.99
2019/09/17 06:48 EDT    0.86   1.53 -999 -999 -999 -99.9  83.8 -999.9 13.6  1.007 -99.9 -99.99 -9.99
2019/09/17 06:54 EDT    0.91   1.57 -999 -999 -999 -99.9  83.8 -999.9 13.7  1.007 -99.9 -99.99 -9.99
2019/09/17 07:00 EDT    0.95   1.60 -999 -999 -999 -99.9  84.0 -999.9 13.9  1.007 -99.9 -99.99 -9.99
2019/09/17 07:06 EDT    1.00   1.65 -999 -999 -999 -99.9  83.8 -999.9 13.6  1.007 -99.9 -99.99 -9.99
2019/09/17 07:12 EDT    1.06   1.69 -999 -999 -999 -99.9  83.8 -999.9 13.8  1.007 -99.9 -99.99 -9.99
2019/09/17 07:18 EDT    1.11   1.75 -999 -999 -999 -99.9  83.8 -999.9 13.6  1.007 -99.9 -99.99 -9.99
2019/09/17 07:24 EDT    1.18   1.81 -999 -999 -999 -99.9  83.8 -999.9 13.7  1.007 -99.9 -99.99 -9.99
2019/09/17 07:30 EDT    1.24   1.89 -999 -999 -999 -99.9  83.8 -999.9 13.8  1.007 -99.9 -99.99 -9.99
2019/09/17 07:36 EDT    1.31   1.94 -999 -999 -999 -99.9  83.8 -999.9 13.8  1.007 -99.9 -99.99 -9.99
2019/09/17 07:42 EDT    1.38   2.02 -999 -999 -999 -99.9  84.0 -999.9 13.8  1.007 -99.9 -99.99 -9.99
2019/09/17 07:48 EDT    1.46   2.10 -999 -999 -999 -99.9  83.8 -999.9 13.7  1.007 -99.9 -99.99 -9.99
2019/09/17 07:54 EDT    1.54   2.19 -999 -999 -999 -99.9  84.0 -999.9 13.9  1.007 -99.9 -99.99 -9.99
2019/09/17 08:00 EDT    1.62   2.28 -999 -999 -999 -99.9  84.0 -999.9 13.9  1.007 -99.9 -99.99 -9.99
2019/09/17 08:06 EDT    1.70   2.38 -999 -999 -999 -99.9  83.8 -999.9 13.5  1.007 -99.9 -99.99 -9.99
2019/09/17 08:12 EDT    1.79   2.49 -999 -999 -999 -99.9  83.8 -999.9 13.5  1.007 -99.9 -99.99 -9.99
2019/09/17 08:18 EDT    1.88   2.57 -999 -999 -999 -99.9  83.8 -999.9 13.7  1.007 -99.9 -99.99 -9.99
2019/09/17 08:24 EDT    1.97   2.68 -999 -999 -999 -99.9  83.8 -999.9 13.5  1.007 -99.9 -99.99 -9.99
2019/09/17 08:30 EDT    2.07   2.78 -999 -999 -999 -99.9  83.8 -999.9 13.5  1.007 -99.9 -99.99 -9.99
2019/09/17 08:36 EDT    2.16   2.90 -999 -999 -999 -99.9  83.8 -999.9 13.3  1.007 -99.9 -99.99 -9.99
2019/09/17 08:42 EDT    2.26   2.99 -999 -999 -999 -99.9  83.7 -999.9 13.2  1.007 -99.9 -99.99 -9.99
2019/09/17 08:48 EDT    2.35   3.07 -999 -999 -999 -99.9  83.7 -999.9 13.1  1.007 -99.9 -99.99 -9.99
2019/09/17 08:54 EDT    2.45   3.17 -999 -999 -999 -99.9  83.7 -999.9 12.7  1.006 -99.9 -99.99 -9.99
2019/09/17 09:00 EDT    2.55   3.25 -999 -999 -999 -99.9  83.7 -999.9 12.4  1.006 -99.9 -99.99 -9.99
2019/09/17 09:06 EDT    2.64   3.35 -999 -999 -999 -99.9  83.7 -999.9 12.7  1.006 -99.9 -99.99 -9.99
2019/09/17 09:12 EDT    2.74   3.44 -999 -999 -999 -99.9  83.7 -999.9 12.5  1.006 -99.9 -99.99 -9.99
2019/09/17 09:18 EDT    2.83   3.52 -999 -999 -999 -99.9  83.7 -999.9 12.7  1.006 -99.9 -99.99 -9.99
2019/09/17 09:24 EDT    2.92   3.61 -999 -999 -999 -99.9  83.7 -999.9 12.8  1.007 -99.9 -99.99 -9.99
2019/09/17 09:30 EDT    3.01   3.69 -999 -999 -999 -99.9  83.8 -999.9 13.0  1.007 -99.9 -99.99 -9.99
2019/09/17 09:36 EDT    3.09   3.76 -999 -999 -999 -99.9  83.7 -999.9 12.9  1.007 -99.9 -99.99 -9.99
2019/09/17 09:42 EDT    3.18   3.84 -999 -999 -999 -99.9  83.7 -999.9 12.6  1.006 -99.9 -99.99 -9.99
2019/09/17 09:48 EDT    3.26   3.92 -999 -999 -999 -99.9  83.7 -999.9 12.8  1.006 -99.9 -99.99 -9.99
2019/09/17 09:54 EDT    3.33   3.99 -999 -999 -999 -99.9  83.7 -999.9 12.7  1.006 -99.9 -99.99 -9.99
2019/09/17 10:00 EDT    3.40   4.06 -999 -999 -999 -99.9  83.7 -999.9 12.6  1.006 -99.9 -99.99 -9.99
2019/09/17 10:06 EDT    3.47   4.11 -999 -999 -999 -99.9  83.7 -999.9 12.7  1.006 -99.9 -99.99 -9.99
2019/09/17 10:12 EDT    3.53   4.16 -999 -999 -999 -99.9  83.8 -999.9 12.6  1.006 -99.9 -99.99 -9.99
2019/09/17 10:18 EDT    3.59   4.21 -999 -999 -999 -99.9  83.8 -999.9 12.5  1.006 -99.9 -99.99 -9.99
2019/09/17 10:24 EDT    3.65   4.26 -999 -999 -999 -99.9  84.0 -999.9 12.9  1.006 -99.9 -99.99 -9.99
2019/09/17 10:30 EDT    3.69   4.31 -999 -999 -999 -99.9  84.0 -999.9 13.6  1.007 -99.9 -99.99 -9.99
2019/09/17 10:36 EDT    3.74   4.35 -999 -999 -999 -99.9  84.2 -999.9 13.6  1.007 -99.9 -99.99 -9.99
2019/09/17 10:42 EDT    3.78   4.39 -999 -999 -999 -99.9  84.2 -999.9 13.2  1.007 -99.9 -99.99 -9.99
2019/09/17 10:48 EDT    3.81   4.42 -999 -999 -999 -99.9  84.0 -999.9 13.0  1.007 -99.9 -99.99 -9.99
2019/09/17 10:54 EDT    3.84   4.45 -999 -999 -999 -99.9  84.0 -999.9 13.3  1.007 -99.9 -99.99 -9.99
2019/09/17 11:00 EDT    3.87   4.46 -999 -999 -999 -99.9  84.2 -999.9 13.5  1.007 -99.9 -99.99 -9.99
2019/09/17 11:06 EDT    3.89   4.49 -999 -999 -999 -99.9  84.2 -999.9 13.5  1.007 -99.9 -99.99 -9.99
2019/09/17 11:12 EDT    3.91   4.50 -999 -999 -999 -99.9  84.2 -999.9 13.9  1.007 -99.9 -99.99 -9.99
2019/09/17 11:18 EDT    3.92   4.51 -999 -999 -999 -99.9  84.2 -999.9 13.9  1.007 -99.9 -99.99 -9.99
2019/09/17 11:24 EDT    3.93   4.54 -999 -999 -999 -99.9  84.2 -999.9 14.0  1.007 -99.9 -99.99 -9.99
2019/09/17 11:30 EDT    3.93   4.54 -999 -999 -999 -99.9  84.2 -999.9 14.0  1.007 -99.9 -99.99 -9.99
2019/09/17 11:36 EDT    3.94   4.55 -999 -999 -999 -99.9  84.2 -999.9 14.1  1.007 -99.9 -99.99 -9.99
2019/09/17 11:42 EDT    3.94   4.56 -999 -999 -999 -99.9  84.2 -999.9 14.0  1.007 -99.9 -99.99 -9.99
2019/09/17 11:48 EDT    3.93   4.58 -999 -999 -999 -99.9  84.2 -999.9 14.0  1.007 -99.9 -99.99 -9.99
2019/09/17 11:54 EDT    3.93   4.57 -999 -999 -999 -99.9  84.2 -999.9 14.1  1.007 -99.9 -99.99 -9.99
2019/09/17 12:00 EDT    3.92   4.57 -999 -999 -999 -99.9  84.2 -999.9 14.2  1.007 -99.9 -99.99 -9.99
2019/09/17 12:06 EDT    3.91   4.57 -999 -999 -999 -99.9  84.4 -999.9 14.2  1.007 -99.9 -99.99 -9.99
2019/09/17 12:12 EDT    3.90   4.57 -999 -999 -999 -99.9  84.2 -999.9 14.3  1.007 -99.9 -99.99 -9.99
2019/09/17 12:18 EDT    3.88   4.56 -999 -999 -999 -99.9  84.4 -999.9 14.3  1.007 -99.9 -99.99 -9.99
2019/09/17 12:24 EDT    3.87   4.54 -999 -999 -999 -99.9  84.4 -999.9 14.4  1.008 -99.9 -99.99 -9.99
2019/09/17 12:30 EDT    3.85   4.52 -999 -999 -999 -99.9  84.4 -999.9 14.5  1.008 -99.9 -99.99 -9.99
2019/09/17 12:36 EDT    3.83   4.51 -999 -999 -999 -99.9  84.4 -999.9 14.6  1.008 -99.9 -99.99 -9.99
2019/09/17 12:42 EDT    3.81   4.49 -999 -999 -999 -99.9  84.4 -999.9 14.6  1.008 -99.9 -99.99 -9.99
2019/09/17 12:48 EDT    3.79   4.47 -999 -999 -999 -99.9  84.4 -999.9 14.7  1.008 -99.9 -99.99 -9.99
2019/09/17 12:54 EDT    3.76   4.45 -999 -999 -999 -99.9  84.6 -999.9 14.7  1.008 -99.9 -99.99 -9.99
2019/09/17 13:00 EDT    3.73   4.41 -999 -999 -999 -99.9  84.6 -999.9 15.0  1.008 -99.9 -99.99 -9.99
2019/09/17 13:06 EDT    3.70   4.36 -999 -999 -999 -99.9  84.7 -999.9 15.4  1.008 -99.9 -99.99 -9.99
2019/09/17 13:12 EDT    3.67   4.34 -999 -999 -999 -99.9  84.9 -999.9 15.8  1.008 -99.9 -99.99 -9.99
2019/09/17 13:18 EDT    3.63   4.30 -999 -999 -999 -99.9  84.7 -999.9 15.9  1.009 -99.9 -99.99 -9.99
2019/09/17 13:24 EDT    3.60   4.26 -999 -999 -999 -99.9  84.7 -999.9 16.2  1.009 -99.9 -99.99 -9.99
2019/09/17 13:30 EDT    3.55   4.18 -999 -999 -999 -99.9  84.7 -999.9 16.6  1.009 -99.9 -99.99 -9.99
2019/09/17 13:36 EDT    3.51   4.17 -999 -999 -999 -99.9  84.9 -999.9 16.4  1.009 -99.9 -99.99 -9.99
2019/09/17 13:42 EDT    3.46   4.13 -999 -999 -999 -99.9  84.9 -999.9 16.3  1.009 -99.9 -99.99 -9.99
2019/09/17 13:48 EDT    3.40   4.04 -999 -999 -999 -99.9  84.9 -999.9 16.5  1.009 -99.9 -99.99 -9.99
2019/09/17 13:54 EDT    3.35   4.00 -999 -999 -999 -99.9  84.7 -999.9 16.9  1.009 -99.9 -99.99 -9.99
2019/09/17 14:00 EDT    3.29   3.87 -999 -999 -999 -99.9  84.6 -999.9 17.2  1.010 -99.9 -99.99 -9.99
2019/09/17 14:06 EDT    3.22   3.83 -999 -999 -999 -99.9  84.7 -999.9 17.1  1.010 -99.9 -99.99 -9.99
2019/09/17 14:12 EDT    3.15   3.77 -999 -999 -999 -99.9  84.7 -999.9 17.0  1.009 -99.9 -99.99 -9.99
2019/09/17 14:18 EDT    3.08   3.69 -999 -999 -999 -99.9  84.6 -999.9 17.2  1.010 -99.9 -99.99 -9.99
2019/09/17 14:24 EDT    3.01   3.60 -999 -999 -999 -99.9  84.7 -999.9 17.1  1.010 -99.9 -99.99 -9.99
2019/09/17 14:30 EDT    2.93   3.49 -999 -999 -999 -99.9  84.7 -999.9 17.1  1.010 -99.9 -99.99 -9.99
2019/09/17 14:36 EDT    2.85   3.42 -999 -999 -999 -99.9  84.7 -999.9 17.1  1.009 -99.9 -99.99 -9.99
2019/09/17 14:42 EDT    2.76   3.32 -999 -999 -999 -99.9  85.1 -999.9 16.9  1.009 -99.9 -99.99 -9.99
2019/09/17 14:48 EDT    2.67   3.23 -999 -999 -999 -99.9  85.1 -999.9 16.8  1.009 -99.9 -99.99 -9.99
2019/09/17 14:54 EDT    2.59   3.14 -999 -999 -999 -99.9  85.1 -999.9 16.7  1.009 -99.9 -99.99 -9.99
2019/09/17 15:00 EDT    2.49   3.05 -999 -999 -999 -99.9  85.3 -999.9 16.3  1.009 -99.9 -99.99 -9.99
2019/09/17 15:06 EDT    2.40   2.94 -999 -999 -999 -99.9  85.1 -999.9 16.4  1.009 -99.9 -99.99 -9.99
2019/09/17 15:12 EDT    2.31   2.85 -999 -999 -999 -99.9  85.1 -999.9 16.3  1.009 -99.9 -99.99 -9.99
2019/09/17 15:18 EDT    2.22   2.75 -999 -999 -999 -99.9  85.1 -999.9 16.3  1.009 -99.9 -99.99 -9.99
2019/09/17 15:24 EDT    2.13   2.65 -999 -999 -999 -99.9  85.1 -999.9 16.4  1.009 -99.9 -99.99 -9.99
2019/09/17 15:30 EDT    2.04   2.53 -999 -999 -999 -99.9  85.1 -999.9 16.3  1.009 -99.9 -99.99 -9.99
2019/09/17 15:36 EDT    1.95   2.48 -999 -999 -999 -99.9  85.1 -999.9 16.4  1.009 -99.9 -99.99 -9.99
2019/09/17 15:42 EDT    1.86   2.40 -999 -999 -999 -99.9  84.9 -999.9 16.5  1.009 -99.9 -99.99 -9.99
2019/09/17 15:48 EDT    1.78   2.33 -999 -999 -999 -99.9  84.9 -999.9 16.5  1.009 -99.9 -99.99 -9.99
2019/09/17 15:54 EDT    1.70   2.25 -999 -999 -999 -99.9  85.3 -999.9 16.2  1.009 -99.9 -99.99 -9.99
2019/09/17 16:00 EDT    1.62   2.17 -999 -999 -999 -99.9  85.1 -999.9 16.3  1.009 -99.9 -99.99 -9.99
2019/09/17 16:06 EDT    1.54   2.08 -999 -999 -999 -99.9  84.9 -999.9 16.5  1.009 -99.9 -99.99 -9.99
2019/09/17 16:12 EDT    1.47   2.02 -999 -999 -999 -99.9  84.9 -999.9 16.4  1.009 -99.9 -99.99 -9.99
2019/09/17 16:18 EDT    1.40   1.96 -999 -999 -999 -99.9  84.9 -999.9 16.2  1.009 -99.9 -99.99 -9.99
2019/09/17 16:24 EDT    1.34   1.90 -999 -999 -999 -99.9  85.1 -999.9 16.0  1.009 -99.9 -99.99 -9.99
2019/09/17 16:30 EDT    1.28   1.85 -999 -999 -999 -99.9  84.9 -999.9 16.1  1.009 -99.9 -99.99 -9.99
2019/09/17 16:36 EDT    1.23   1.82 -999 -999 -999 -99.9  85.1 -999.9 15.8  1.008 -99.9 -99.99 -9.99
2019/09/17 16:42 EDT    1.17   1.75 -999 -999 -999 -99.9  85.1 -999.9 15.6  1.008 -99.9 -99.99 -9.99
2019/09/17 16:48 EDT    1.13   1.71 -999 -999 -999 -99.9  85.1 -999.9 15.6  1.008 -99.9 -99.99 -9.99
2019/09/17 16:54 EDT    1.09   1.67 -999 -999 -999 -99.9  84.9 -999.9 15.7  1.008 -99.9 -99.99 -9.99
2019/09/17 17:00 EDT    1.05   1.65 -999 -999 -999 -99.9  84.7 -999.9 15.6  1.008 -99.9 -99.99 -9.99
2019/09/17 17:06 EDT    1.01   1.63 -999 -999 -999 -99.9  85.1 -999.9 14.9  1.008 -99.9 -99.99 -9.99
2019/09/17 17:12 EDT    0.98   1.59 -999 -999 -999 -99.9  84.9 -999.9 15.1  1.008 -99.9 -99.99 -9.99
2019/09/17 17:18 EDT    0.96   1.56 -999 -999 -999 -99.9  84.9 -999.9 15.1  1.008 -99.9 -99.99 -9.99
2019/09/17 17:24 EDT    0.94   1.55 -999 -999 -999 -99.9  84.7 -999.9 15.4  1.008 -99.9 -99.99 -9.99
2019/09/17 17:30 EDT    0.92   1.52 -999 -999 -999 -99.9  84.9 -999.9 15.1  1.008 -99.9 -99.99 -9.99
2019/09/17 17:36 EDT    0.90   1.50 -999 -999 -999 -99.9  84.9 -999.9 14.9  1.008 -99.9 -99.99 -9.99
2019/09/17 17:42 EDT    0.89   1.48 -999 -999 -999 -99.9  85.1 -999.9 14.4  1.007 -99.9 -99.99 -9.99
2019/09/17 17:48 EDT    0.88   1.48 -999 -999 -999 -99.9  85.1 -999.9 14.2  1.007 -99.9 -99.99 -9.99
2019/09/17 17:54 EDT    0.88   1.47 -999 -999 -999 -99.9  85.1 -999.9 14.1  1.007 -99.9 -99.99 -9.99
2019/09/17 18:00 EDT    0.87   1.45 -999 -999 -999 -99.9  85.1 -999.9 14.2  1.007 -99.9 -99.99 -9.99
2019/09/17 18:06 EDT    0.88   1.43 -999 -999 -999 -99.9  85.1 -999.9 14.1  1.007 -99.9 -99.99 -9.99
2019/09/17 18:12 EDT    0.88   1.44 -999 -999 -999 -99.9  85.1 -999.9 14.3  1.007 -99.9 -99.99 -9.99
2019/09/17 18:18 EDT    0.89   1.42 -999 -999 -999 -99.9  85.1 -999.9 14.0  1.007 -99.9 -99.99 -9.99
2019/09/17 18:24 EDT    0.89   1.41 -999 -999 -999 -99.9  85.1 -999.9 13.9  1.007 -99.9 -99.99 -9.99
2019/09/17 18:30 EDT    0.91   1.41 -999 -999 -999 -99.9  85.1 -999.9 14.0  1.007 -99.9 -99.99 -9.99
2019/09/17 18:36 EDT    0.92   1.43 -999 -999 -999 -99.9  85.1 -999.9 13.8  1.007 -99.9 -99.99 -9.99
2019/09/17 18:42 EDT    0.94   1.45 -999 -999 -999 -99.9  85.1 -999.9 13.7  1.007 -99.9 -99.99 -9.99
2019/09/17 18:48 EDT    0.96   1.46 -999 -999 -999 -99.9  85.1 -999.9 13.5  1.007 -99.9 -99.99 -9.99
2019/09/17 18:54 EDT    0.98   1.51 -999 -999 -999 -99.9  85.1 -999.9 13.4  1.007 -99.9 -99.99 -9.99
2019/09/17 19:00 EDT    1.01   1.50 -999 -999 -999 -99.9  85.1 -999.9 13.4  1.007 -99.9 -99.99 -9.99
2019/09/17 19:06 EDT    1.04   1.51 -999 -999 -999 -99.9  85.1 -999.9 13.3  1.007 -99.9 -99.99 -9.99
2019/09/17 19:12 EDT    1.07   1.54 -999 -999 -999 -99.9  85.1 -999.9 13.4  1.007 -99.9 -99.99 -9.99
2019/09/17 19:18 EDT    1.11   1.59 -999 -999 -999 -99.9  84.9 -999.9 13.2  1.007 -99.9 -99.99 -9.99
2019/09/17 19:24 EDT    1.15   1.63 -999 -999 -999 -99.9  84.9 -999.9 13.2  1.007 -99.9 -99.99 -9.99
2019/09/17 19:30 EDT    1.20   1.68 -999 -999 -999 -99.9  84.9 -999.9 13.0  1.006 -99.9 -99.99 -9.99
2019/09/17 19:36 EDT    1.24   1.74 -999 -999 -999 -99.9  84.9 -999.9 13.0  1.006 -99.9 -99.99 -9.99
2019/09/17 19:42 EDT    1.29   1.81 -999 -999 -999 -99.9  84.7 -999.9 13.0  1.006 -99.9 -99.99 -9.99
2019/09/17 19:48 EDT    1.35   1.88 -999 -999 -999 -99.9  84.9 -999.9 12.8  1.006 -99.9 -99.99 -9.99
2019/09/17 19:54 EDT    1.41   1.94 -999 -999 -999 -99.9  84.7 -999.9 12.9  1.006 -99.9 -99.99 -9.99
2019/09/17 20:00 EDT    1.47   2.02 -999 -999 -999 -99.9  84.7 -999.9 12.8  1.006 -99.9 -99.99 -9.99
2019/09/17 20:06 EDT    1.53   2.11 -999 -999 -999 -99.9  84.7 -999.9 12.8  1.006 -99.9 -99.99 -9.99
2019/09/17 20:12 EDT    1.60   2.21 -999 -999 -999 -99.9  84.7 -999.9 12.6  1.006 -99.9 -99.99 -9.99
2019/09/17 20:18 EDT    1.67   2.30 -999 -999 -999 -99.9  84.7 -999.9 12.4  1.006 -99.9 -99.99 -9.99
2019/09/17 20:24 EDT    1.74   2.40 -999 -999 -999 -99.9  84.7 -999.9 12.3  1.006 -99.9 -99.99 -9.99
2019/09/17 20:30 EDT    1.82   2.47 -999 -999 -999 -99.9  84.7 -999.9 12.2  1.006 -99.9 -99.99 -9.99
2019/09/17 20:36 EDT    1.90   2.60 -999 -999 -999 -99.9  84.7 -999.9 12.3  1.006 -99.9 -99.99 -9.99
2019/09/17 20:42 EDT    1.98   2.67 -999 -999 -999 -99.9  84.7 -999.9 12.3  1.006 -99.9 -99.99 -9.99
2019/09/17 20:48 EDT    2.06   2.79 -999 -999 -999 -99.9  84.7 -999.9 12.4  1.006 -99.9 -99.99 -9.99
2019/09/17 20:54 EDT    2.15   2.87 -999 -999 -999 -99.9  84.7 -999.9 12.4  1.006 -99.9 -99.99 -9.99
2019/09/17 21:00 EDT    2.24   2.96 -999 -999 -999 -99.9  84.7 -999.9 12.3  1.006 -99.9 -99.99 -9.99
2019/09/17 21:06 EDT    2.32   3.06 -999 -999 -999 -99.9  84.7 -999.9 12.3  1.006 -99.9 -99.99 -9.99
2019/09/17 21:12 EDT    2.41   3.15 -999 -999 -999 -99.9  84.7 -999.9 12.3  1.006 -99.9 -99.99 -9.99
2019/09/17 21:18 EDT    2.50   3.24 -999 -999 -999 -99.9  84.7 -999.9 12.4  1.006 -99.9 -99.99 -9.99
2019/09/17 21:24 EDT    2.59   3.36 -999 -999 -999 -99.9  84.7 -999.9 12.5  1.006 -99.9 -99.99 -9.99
2019/09/17 21:30 EDT    2.68   3.32 -999 -999 -999 -99.9  84.7 -999.9 12.5  1.006 -99.9 -99.99 -9.99
2019/09/17 21:36 EDT    2.77   3.46 -999 -999 -999 -99.9  84.7 -999.9 12.6  1.006 -99.9 -99.99 -9.99
2019/09/17 21:42 EDT    2.86   3.57 -999 -999 -999 -99.9  84.7 -999.9 12.3  1.006 -99.9 -99.99 -9.99
2019/09/17 21:48 EDT    2.94   3.68 -999 -999 -999 -99.9  84.7 -999.9 12.6  1.006 -99.9 -99.99 -9.99
2019/09/17 21:54 EDT    3.03   3.73 -999 -999 -999 -99.9  84.7 -999.9 13.0  1.006 -99.9 -99.99 -9.99
2019/09/17 22:00 EDT    3.11   3.83 -999 -999 -999 -99.9  84.7 -999.9 13.3  1.007 -99.9 -99.99 -9.99
2019/09/17 22:06 EDT    3.19   3.92 -999 -999 -999 -99.9  84.7 -999.9 12.7  1.006 -99.9 -99.99 -9.99
2019/09/17 22:12 EDT    3.26   3.95 -999 -999 -999 -99.9  84.6 -999.9 12.6  1.006 -99.9 -99.99 -9.99
2019/09/17 22:18 EDT    3.33   4.04 -999 -999 -999 -99.9  84.6 -999.9 12.7  1.006 -99.9 -99.99 -9.99
2019/09/17 22:24 EDT    3.40   4.09 -999 -999 -999 -99.9  84.4 -999.9 12.5  1.006 -99.9 -99.99 -9.99
2019/09/17 22:30 EDT    3.46   4.17 -999 -999 -999 -99.9  84.4 -999.9 12.5  1.006 -99.9 -99.99 -9.99
2019/09/17 22:36 EDT    3.52   4.27 -999 -999 -999 -99.9  84.4 -999.9 12.4  1.006 -99.9 -99.99 -9.99
2019/09/17 22:42 EDT    3.58   4.24 -999 -999 -999 -99.9  84.4 -999.9 12.9  1.006 -99.9 -99.99 -9.99
2019/09/17 22:48 EDT    3.63   4.29 -999 -999 -999 -99.9  84.4 -999.9 13.2  1.007 -99.9 -99.99 -9.99
2019/09/17 22:54 EDT    3.68   4.34 -999 -999 -999 -99.9  84.4 -999.9 12.6  1.006 -99.9 -99.99 -9.99
2019/09/17 23:00 EDT    3.72   4.38 -999 -999 -999 -99.9  84.4 -999.9 12.6  1.006 -99.9 -99.99 -9.99
2019/09/17 23:06 EDT    3.76   4.41 -999 -999 -999 -99.9  84.4 -999.9 12.6  1.006 -99.9 -99.99 -9.99
2019/09/17 23:12 EDT    3.79   4.45 -999 -999 -999 -99.9  84.4 -999.9 12.6  1.006 -99.9 -99.99 -9.99
2019/09/17 23:18 EDT    3.82   4.48 -999 -999 -999 -99.9  84.4 -999.9 12.7  1.006 -99.9 -99.99 -9.99
2019/09/17 23:24 EDT    3.84   4.50 -999 -999 -999 -99.9  84.4 -999.9 12.9  1.006 -99.9 -99.99 -9.99
2019/09/17 23:30 EDT    3.86   4.51 -999 -999 -999 -99.9  84.4 -999.9 12.9  1.006 -99.9 -99.99 -9.99
2019/09/17 23:36 EDT    3.88   4.53 -999 -999 -999 -99.9  84.4 -999.9 13.0  1.007 -99.9 -99.99 -9.99
2019/09/17 23:42 EDT    3.89   4.54 -999 -999 -999 -99.9  84.4 -999.9 13.2  1.007 -99.9 -99.99 -9.99
2019/09/17 23:48 EDT    3.90   4.56 -999 -999 -999 -99.9  84.4 -999.9 13.3  1.007 -99.9 -99.99 -9.99
2019/09/17 23:54 EDT    3.90   4.56 -999 -999 -999 -99.9  84.4 -999.9 13.4  1.007 -99.9 -99.99 -9.99
2019/09/18 00:00 EDT    3.90   4.57 -999 -999 -999 -99.9  84.4 -999.9 13.3  1.007 -99.9 -99.99 -9.99
2019/09/18 00:06 EDT    3.90   4.58 -999 -999 -999 -99.9  84.6 -999.9 13.5  1.007 -99.9 -99.99 -9.99
2019/09/18 00:12 EDT    3.90   4.58 -999 -999 -999 -99.9  84.6 -999.9 13.7  1.007 -99.9 -99.99 -9.99
2019/09/18 00:18 EDT    3.89   4.59 -999 -999 -999 -99.9  84.6 -999.9 13.6  1.007 -99.9 -99.99 -9.99
2019/09/18 00:24 EDT    3.88   4.59 -999 -999 -999 -99.9  84.6 -999.9 13.7  1.007 -99.9 -99.99 -9.99
2019/09/18 00:30 EDT    3.87   4.60 -999 -999 -999 -99.9  84.6 -999.9 13.8  1.007 -99.9 -99.99 -9.99
2019/09/18 00:36 EDT    3.85   4.58 -999 -999 -999 -99.9  84.6 -999.9 13.8  1.007 -99.9 -99.99 -9.99
2019/09/18 00:42 EDT    3.84   4.57 -999 -999 -999 -99.9  84.4 -999.9 13.8  1.007 -99.9 -99.99 -9.99
2019/09/18 00:48 EDT    3.82   4.57 -999 -999 -999 -99.9  84.4 -999.9 13.9  1.007 -99.9 -99.99 -9.99
2019/09/18 00:54 EDT    3.80   4.55 -999 -999 -999 -99.9  84.6 -999.9 14.1  1.007 -99.9 -99.99 -9.99
2019/09/18 01:00 EDT    3.77   4.52 -999 -999 -999 -99.9  84.6 -999.9 14.2  1.007 -99.9 -99.99 -9.99
2019/09/18 01:06 EDT    3.75   4.50 -999 -999 -999 -99.9  84.6 -999.9 14.1  1.007 -99.9 -99.99 -9.99
2019/09/18 01:12 EDT    3.72   4.48 -999 -999 -999 -99.9  84.6 -999.9 14.4  1.008 -99.9 -99.99 -9.99
2019/09/18 01:18 EDT    3.69   4.45 -999 -999 -999 -99.9  84.6 -999.9 14.6  1.008 -99.9 -99.99 -9.99
2019/09/18 01:24 EDT    3.66   4.41 -999 -999 -999 -99.9  84.6 -999.9 14.4  1.008 -99.9 -99.99 -9.99
2019/09/18 01:30 EDT    3.62   4.37 -999 -999 -999 -99.9  84.6 -999.9 14.6  1.008 -99.9 -99.99 -9.99
2019/09/18 01:36 EDT    3.59   4.33 -999 -999 -999 -99.9  84.7 -999.9 15.0  1.008 -99.9 -99.99 -9.99
2019/09/18 01:42 EDT    3.55   4.29 -999 -999 -999 -99.9  84.7 -999.9 15.1  1.008 -99.9 -99.99 -9.99
2019/09/18 01:48 EDT    3.50   4.23 -999 -999 -999 -99.9  84.7 -999.9 15.3  1.008 -99.9 -99.99 -9.99
2019/09/18 01:54 EDT    3.45   4.18 -999 -999 -999 -99.9  84.7 -999.9 15.7  1.008 -99.9 -99.99 -9.99
2019/09/18 02:00 EDT    3.40   4.10 -999 -999 -999 -99.9  84.9 -999.9 16.1  1.009 -99.9 -99.99 -9.99
2019/09/18 02:06 EDT    3.35   4.03 -999 -999 -999 -99.9  84.7 -999.9 16.2  1.009 -99.9 -99.99 -9.99
2019/09/18 02:12 EDT    3.29   3.96 -999 -999 -999 -99.9  84.9 -999.9 16.3  1.009 -99.9 -99.99 -9.99
2019/09/18 02:18 EDT    3.23   3.90 -999 -999 -999 -99.9  84.9 -999.9 16.9  1.009 -99.9 -99.99 -9.99
2019/09/18 02:24 EDT    3.16   3.79 -999 -999 -999 -99.9  84.9 -999.9 16.4  1.009 -99.9 -99.99 -9.99
2019/09/18 02:30 EDT    3.09   3.71 -999 -999 -999 -99.9  84.7 -999.9 16.2  1.009 -99.9 -99.99 -9.99
2019/09/18 02:36 EDT    3.01   3.61 -999 -999 -999 -99.9  84.7 -999.9 16.4  1.009 -99.9 -99.99 -9.99
2019/09/18 02:42 EDT    2.94   3.53 -999 -999 -999 -99.9  84.7 -999.9 15.8  1.009 -99.9 -99.99 -9.99
2019/09/18 02:48 EDT    2.85   3.41 -999 -999 -999 -99.9  84.7 -999.9 15.7  1.008 -99.9 -99.99 -9.99
2019/09/18 02:54 EDT    2.77   3.32 -999 -999 -999 -99.9  84.7 -999.9 15.3  1.008 -99.9 -99.99 -9.99
2019/09/18 03:00 EDT    2.68   3.25 -999 -999 -999 -99.9  84.7 -999.9 15.1  1.008 -99.9 -99.99 -9.99
2019/09/18 03:06 EDT    2.59   3.14 -999 -999 -999 -99.9  84.9 -999.9 15.6  1.008 -99.9 -99.99 -9.99
2019/09/18 03:12 EDT    2.50   3.05 -999 -999 -999 -99.9  84.9 -999.9 15.7  1.008 -99.9 -99.99 -9.99
2019/09/18 03:18 EDT    2.40   2.95 -999 -999 -999 -99.9  84.9 -999.9 15.9  1.009 -99.9 -99.99 -9.99
2019/09/18 03:24 EDT    2.30   2.86 -999 -999 -999 -99.9  84.9 -999.9 16.5  1.009 -99.9 -99.99 -9.99
2019/09/18 03:30 EDT    2.21   2.77 -999 -999 -999 -99.9  84.9 -999.9 16.3  1.009 -99.9 -99.99 -9.99
2019/09/18 03:36 EDT    2.11   2.67 -999 -999 -999 -99.9  84.9 -999.9 16.0  1.009 -99.9 -99.99 -9.99
2019/09/18 03:42 EDT    2.01   2.58 -999 -999 -999 -99.9  84.7 -999.9 15.7  1.008 -99.9 -99.99 -9.99
2019/09/18 03:48 EDT    1.91   2.50 -999 -999 -999 -99.9  84.7 -999.9 16.2  1.009 -99.9 -99.99 -9.99
2019/09/18 03:54 EDT    1.82   2.42 -999 -999 -999 -99.9  84.7 -999.9 15.9  1.009 -99.9 -99.99 -9.99
2019/09/18 04:00 EDT    1.73   2.33 -999 -999 -999 -99.9  84.7 -999.9 16.1  1.009 -99.9 -99.99 -9.99
2019/09/18 04:06 EDT    1.63   2.25 -999 -999 -999 -99.9  84.7 -999.9 16.0  1.009 -99.9 -99.99 -9.99
2019/09/18 04:12 EDT    1.55   2.18 -999 -999 -999 -99.9  84.7 -999.9 16.0  1.009 -99.9 -99.99 -9.99
2019/09/18 04:18 EDT    1.46   2.11 -999 -999 -999 -99.9  84.6 -999.9 15.7  1.009 -99.9 -99.99 -9.99
2019/09/18 04:24 EDT    1.38   2.04 -999 -999 -999 -99.9  84.6 -999.9 15.6  1.008 -99.9 -99.99 -9.99
2019/09/18 04:30 EDT    1.30   1.98 -999 -999 -999 -99.9  84.6 -999.9 15.5  1.008 -99.9 -99.99 -9.99
2019/09/18 04:36 EDT    1.23   1.92 -999 -999 -999 -99.9  84.6 -999.9 15.4  1.008 -99.9 -99.99 -9.99
2019/09/18 04:42 EDT    1.16   1.87 -999 -999 -999 -99.9  84.6 -999.9 15.1  1.008 -99.9 -99.99 -9.99
2019/09/18 04:48 EDT    1.09   1.83 -999 -999 -999 -99.9  84.6 -999.9 15.0  1.008 -99.9 -99.99 -9.99
2019/09/18 04:54 EDT    1.03   1.79 -999 -999 -999 -99.9  84.6 -999.9 15.0  1.008 -99.9 -99.99 -9.99
2019/09/18 05:00 EDT    0.98   1.74 -999 -999 -999 -99.9  84.4 -999.9 14.6  1.008 -99.9 -99.99 -9.99
2019/09/18 05:06 EDT    0.93   1.71 -999 -999 -999 -99.9  84.6 -999.9 14.8  1.008 -99.9 -99.99 -9.99
2019/09/18 05:12 EDT    0.88   1.66 -999 -999 -999 -99.9  84.6 -999.9 14.9  1.008 -99.9 -99.99 -9.99
2019/09/18 05:18 EDT    0.84   1.61 -999 -999 -999 -99.9  84.6 -999.9 14.7  1.008 -99.9 -99.99 -9.99
2019/09/18 05:24 EDT    0.81   1.59 -999 -999 -999 -99.9  84.6 -999.9 14.7  1.008 -99.9 -99.99 -9.99
2019/09/18 05:30 EDT    0.78   1.56 -999 -999 -999 -99.9  84.4 -999.9 14.2  1.007 -99.9 -99.99 -9.99
2019/09/18 05:36 EDT    0.75   1.53 -999 -999 -999 -99.9  84.4 -999.9 14.2  1.007 -99.9 -99.99 -9.99
2019/09/18 05:42 EDT    0.73   1.51 -999 -999 -999 -99.9  84.6 -999.9 14.3  1.007 -99.9 -99.99 -9.99
2019/09/18 05:48 EDT    0.71   1.51 -999 -999 -999 -99.9  84.4 -999.9 14.0  1.007 -99.9 -99.99 -9.99
2019/09/18 05:54 EDT    0.70   1.48 -999 -999 -999 -99.9  84.4 -999.9 14.1  1.007 -99.9 -99.99 -9.99
2019/09/18 06:00 EDT    0.69   1.45 -999 -999 -999 -99.9  84.4 -999.9 13.8  1.007 -99.9 -99.99 -9.99
2019/09/18 06:06 EDT    0.69   1.42 -999 -999 -999 -99.9  84.4 -999.9 13.8  1.007 -99.9 -99.99 -9.99
2019/09/18 06:12 EDT    0.69   1.42 -999 -999 -999 -99.9  84.4 -999.9 13.7  1.007 -99.9 -99.99 -9.99
2019/09/18 06:18 EDT    0.69   1.42 -999 -999 -999 -99.9  84.4 -999.9 13.9  1.007 -99.9 -99.99 -9.99
2019/09/18 06:24 EDT    0.70   1.42 -999 -999 -999 -99.9  84.4 -999.9 13.7  1.007 -99.9 -99.99 -9.99
2019/09/18 06:30 EDT    0.71   1.42 -999 -999 -999 -99.9  84.2 -999.9 13.6  1.007 -99.9 -99.99 -9.99
2019/09/18 06:36 EDT    0.72   1.41 -999 -999 -999 -99.9  84.4 -999.9 13.6  1.007 -99.9 -99.99 -9.99
2019/09/18 06:42 EDT    0.74   1.41 -999 -999 -999 -99.9  84.2 -999.9 13.4  1.007 -99.9 -99.99 -9.99
2019/09/18 06:48 EDT    0.76   1.43 -999 -999 -999 -99.9  84.2 -999.9 13.2  1.007 -99.9 -99.99 -9.99
2019/09/18 06:54 EDT    0.78   1.45 -999 -999 -999 -99.9  84.4 -999.9 13.7  1.007 -99.9 -99.99 -9.99
2019/09/18 07:00 EDT    0.81   1.46 -999 -999 -999 -99.9  84.2 -999.9 13.2  1.007 -99.9 -99.99 -9.99
2019/09/18 07:06 EDT    0.84   1.48 -999 -999 -999 -99.9  84.4 -999.9 12.9  1.006 -99.9 -99.99 -9.99
2019/09/18 07:12 EDT    0.88   1.51 -999 -999 -999 -99.9  84.2 -999.9 12.9  1.006 -99.9 -99.99 -9.99
2019/09/18 07:18 EDT    0.91   1.53 -999 -999 -999 -99.9  84.2 -999.9 12.4  1.006 -99.9 -99.99 -9.99
2019/09/18 07:24 EDT    0.95   1.57 -999 -999 -999 -99.9  84.2 -999.9 12.6  1.006 -99.9 -99.99 -9.99
2019/09/18 07:30 EDT    0.99   1.61 -999 -999 -999 -99.9  84.2 -999.9 12.9  1.006 -99.9 -99.99 -9.99
2019/09/18 07:36 EDT    1.04   1.65 -999 -999 -999 -99.9  84.2 -999.9 12.7  1.006 -99.9 -99.99 -9.99
2019/09/18 07:42 EDT    1.09   1.70 -999 -999 -999 -99.9  84.2 -999.9 12.9  1.006 -99.9 -99.99 -9.99
2019/09/18 07:48 EDT    1.14   1.75 -999 -999 -999 -99.9  84.2 -999.9 12.9  1.006 -99.9 -99.99 -9.99
2019/09/18 07:54 EDT    1.20   1.79 -999 -999 -999 -99.9  84.2 -999.9 12.9  1.006 -99.9 -99.99 -9.99
2019/09/18 08:00 EDT    1.26   1.85 -999 -999 -999 -99.9  84.2 -999.9 12.5  1.006 -99.9 -99.99 -9.99
2019/09/18 08:06 EDT    1.32   1.91 -999 -999 -999 -99.9  84.2 -999.9 12.6  1.006 -99.9 -99.99 -9.99
2019/09/18 08:12 EDT    1.39 -99.99 -999 -999 -999 -99.9 -99.9 -999.9 -9.9 -9.999 -99.9 -99.99 -9.99
2019/09/18 08:18 EDT    1.46 -99.99 -999 -999 -999 -99.9 -99.9 -999.9 -9.9 -9.999 -99.9 -99.99 -9.99